Time,TemperatureF,DewpointF,PressureIn,WindDirection,WindDirectionDegrees,WindSpeedMPH,WindSpeedGustMPH,Humidity,HourlyPrecipIn,Conditions,Clouds,dailyrainin,SoftwareType,DateUTC
2013-06-08 00:01:00,52.1,48.0,29.91,ENE,76,0.0,0.0,86,0.00,,,0.00,Wunderground v.1.15,2013-06-08 05:01:00,
2013-06-08 00:02:00,52.1,48.0,29.91,ENE,76,0.0,0.0,86,0.00,,,0.00,Wunderground v.1.15,2013-06-08 05:02:00,
2013-06-08 00:04:00,52.1,48.0,29.91,ENE,76,0.0,0.0,86,0.00,,,0.00,Wunderground v.1.15,2013-06-08 05:04:00,
2013-06-08 00:05:00,52.1,48.3,29.91,ENE,76,0.0,0.0,87,0.00,,,0.00,Wunderground v.1.15,2013-06-08 05:05:00,
2013-06-08 00:07:00,52.1,48.3,29.91,ENE,76,0.0,0.0,87,0.00,,,0.00,Wunderground v.1.15,2013-06-08 05:07:00,
2013-06-08 00:08:00,52.1,48.3,29.91,ENE,76,0.0,0.0,87,0.00,,,0.00,Wunderground v.1.15,2013-06-08 05:08:00,
2013-06-08 00:10:00,52.0,47.9,29.91,ENE,76,0.0,0.0,86,0.00,,,0.00,Wunderground v.1.15,2013-06-08 05:10:00,
2013-06-08 00:12:00,51.9,47.8,29.91,ENE,76,0.0,0.0,86,0.00,,,0.00,Wunderground v.1.15,2013-06-08 05:12:00,
2013-06-08 00:13:00,51.9,47.8,29.91,ENE,76,0.0,0.0,86,0.00,,,0.00,Wunderground v.1.15,2013-06-08 05:13:00,
2013-06-08 00:14:00,51.9,47.8,29.91,ENE,76,0.0,0.0,86,0.00,,,0.00,Wunderground v.1.15,2013-06-08 05:14:00,
2013-06-08 00:17:00,51.8,47.7,29.91,ENE,76,0.0,0.0,86,0.00,,,0.00,Wunderground v.1.15,2013-06-08 05:17:00,
2013-06-08 00:18:00,51.7,47.6,29.91,ENE,76,0.0,0.0,86,0.00,,,0.00,Wunderground v.1.15,2013-06-08 05:18:00,
2013-06-08 00:19:00,51.7,47.6,29.91,ENE,76,0.0,0.0,86,0.00,,,0.00,Wunderground v.1.15,2013-06-08 05:19:00,
2013-06-08 00:20:00,51.7,47.6,29.91,ENE,76,0.0,0.0,86,0.00,,,0.00,Wunderground v.1.15,2013-06-08 05:20:00,
2013-06-08 00:24:00,51.5,47.5,29.91,ENE,76,0.0,0.0,86,0.00,,,0.00,Wunderground v.1.15,2013-06-08 05:24:00,
2013-06-08 00:26:00,51.5,47.5,29.91,ENE,76,0.0,0.0,86,0.00,,,0.00,Wunderground v.1.15,2013-06-08 05:26:00,
2013-06-08 00:27:00,51.5,47.5,29.91,ENE,76,0.0,0.0,86,0.00,,,0.00,Wunderground v.1.15,2013-06-08 05:27:00,
2013-06-08 00:29:00,51.4,47.4,29.91,ENE,76,0.0,0.0,86,0.00,,,0.00,Wunderground v.1.15,2013-06-08 05:29:00,
2013-06-08 00:30:00,51.4,47.4,29.91,ENE,76,0.0,0.0,86,0.00,,,0.00,Wunderground v.1.15,2013-06-08 05:30:00,
2013-06-08 00:32:00,51.4,47.7,29.91,ENE,76,0.0,0.0,87,0.00,,,0.00,Wunderground v.1.15,2013-06-08 05:32:00,
2013-06-08 00:35:00,51.3,47.6,29.91,ENE,76,0.0,0.0,87,0.00,,,0.00,Wunderground v.1.15,2013-06-08 05:35:00,
2013-06-08 00:36:00,51.3,47.6,29.91,ENE,76,0.0,0.0,87,0.00,,,0.00,Wunderground v.1.15,2013-06-08 05:36:00,
2013-06-08 00:39:00,51.2,47.5,29.91,ENE,76,0.0,0.0,87,0.00,,,0.00,Wunderground v.1.15,2013-06-08 05:39:00,
2013-06-08 00:40:00,51.2,47.5,29.91,ENE,76,0.0,0.0,87,0.00,,,0.00,Wunderground v.1.15,2013-06-08 05:40:00,
2013-06-08 00:45:00,51.0,47.3,29.91,ENE,76,0.0,0.0,87,0.00,,,0.00,Wunderground v.1.15,2013-06-08 05:45:00,
2013-06-08 00:46:00,50.9,47.2,29.91,ENE,76,0.0,0.0,87,0.00,,,0.00,Wunderground v.1.15,2013-06-08 05:46:00,
2013-06-08 00:47:00,50.9,47.2,29.91,ENE,76,0.0,0.0,87,0.00,,,0.00,Wunderground v.1.15,2013-06-08 05:47:00,
2013-06-08 00:48:00,50.9,47.2,29.91,ENE,76,0.0,0.0,87,0.00,,,0.00,Wunderground v.1.15,2013-06-08 05:48:00,
2013-06-08 00:51:00,50.7,47.0,29.91,ENE,76,0.0,0.0,87,0.00,,,0.00,Wunderground v.1.15,2013-06-08 05:51:00,
2013-06-08 00:53:00,50.6,46.9,29.91,ENE,76,0.0,0.0,87,0.00,,,0.00,Wunderground v.1.15,2013-06-08 05:53:00,
2013-06-08 00:56:00,50.5,46.8,29.91,ENE,76,0.0,0.0,87,0.00,,,0.00,Wunderground v.1.15,2013-06-08 05:56:00,
2013-06-08 00:57:00,50.5,46.8,29.91,ENE,76,0.0,0.0,87,0.00,,,0.00,Wunderground v.1.15,2013-06-08 05:57:00,
2013-06-08 00:58:00,50.5,46.8,29.91,ENE,76,0.0,0.0,87,0.00,,,0.00,Wunderground v.1.15,2013-06-08 05:58:00,
2013-06-08 00:59:00,50.5,46.8,29.91,ENE,76,0.0,0.0,87,0.00,,,0.00,Wunderground v.1.15,2013-06-08 05:59:00,
2013-06-08 01:01:00,50.4,46.7,29.91,ENE,76,0.0,0.0,87,0.00,,,0.00,Wunderground v.1.15,2013-06-08 06:01:00,
2013-06-08 01:02:00,50.3,46.6,29.91,ENE,76,0.0,0.0,87,0.00,,,0.00,Wunderground v.1.15,2013-06-08 06:02:00,
2013-06-08 01:04:00,50.3,46.6,29.91,ENE,76,0.0,0.0,87,0.00,,,0.00,Wunderground v.1.15,2013-06-08 06:04:00,
2013-06-08 01:07:00,50.2,46.5,29.91,ENE,76,0.0,0.0,87,0.00,,,0.00,Wunderground v.1.15,2013-06-08 06:07:00,
2013-06-08 01:08:00,50.1,46.4,29.91,ENE,76,0.0,0.0,87,0.00,,,0.00,Wunderground v.1.15,2013-06-08 06:08:00,
2013-06-08 01:10:00,50.1,46.4,29.91,ENE,76,0.0,0.0,87,0.00,,,0.00,Wunderground v.1.15,2013-06-08 06:10:00,
2013-06-08 01:11:00,50.0,46.3,29.91,ENE,76,0.0,0.0,87,0.00,,,0.00,Wunderground v.1.15,2013-06-08 06:11:00,
2013-06-08 01:13:00,50.0,46.3,29.91,ENE,76,0.0,0.0,87,0.00,,,0.00,Wunderground v.1.15,2013-06-08 06:13:00,
2013-06-08 01:14:00,49.9,46.2,29.90,ENE,76,0.0,0.0,87,0.00,,,0.00,Wunderground v.1.15,2013-06-08 06:14:00,
2013-06-08 01:17:00,49.8,46.1,29.90,ENE,76,0.0,0.0,87,0.00,,,0.00,Wunderground v.1.15,2013-06-08 06:17:00,
2013-06-08 01:18:00,49.8,46.4,29.90,ENE,76,0.0,0.0,88,0.00,,,0.00,Wunderground v.1.15,2013-06-08 06:18:00,
2013-06-08 01:23:00,49.7,46.6,29.90,ENE,76,0.0,0.0,89,0.00,,,0.00,Wunderground v.1.15,2013-06-08 06:23:00,
2013-06-08 01:25:00,49.7,46.6,29.90,ENE,76,0.0,0.0,89,0.00,,,0.00,Wunderground v.1.15,2013-06-08 06:25:00,
2013-06-08 01:26:00,49.7,46.6,29.90,ENE,76,0.0,0.0,89,0.00,,,0.00,Wunderground v.1.15,2013-06-08 06:26:00,
2013-06-08 01:27:00,49.7,46.6,29.90,ENE,76,0.0,0.0,89,0.00,,,0.00,Wunderground v.1.15,2013-06-08 06:27:00,
2013-06-08 01:28:00,49.7,46.6,29.90,ENE,76,0.0,0.0,89,0.00,,,0.00,Wunderground v.1.15,2013-06-08 06:28:00,
2013-06-08 01:31:00,49.7,46.6,29.91,ENE,76,0.0,0.0,89,0.00,,,0.00,Wunderground v.1.15,2013-06-08 06:31:00,
2013-06-08 01:32:00,49.7,46.6,29.91,ENE,76,0.0,0.0,89,0.00,,,0.00,Wunderground v.1.15,2013-06-08 06:32:00,
2013-06-08 01:33:00,49.7,46.6,29.91,ENE,76,0.0,0.0,89,0.00,,,0.00,Wunderground v.1.15,2013-06-08 06:33:00,
2013-06-08 01:34:00,49.7,46.6,29.90,ENE,76,0.0,0.0,89,0.00,,,0.00,Wunderground v.1.15,2013-06-08 06:34:00,
2013-06-08 01:37:00,49.6,46.5,29.90,ENE,76,0.0,0.0,89,0.00,,,0.00,Wunderground v.1.15,2013-06-08 06:37:00,
2013-06-08 01:39:00,49.6,46.5,29.90,ENE,76,0.0,0.0,89,0.00,,,0.00,Wunderground v.1.15,2013-06-08 06:39:00,
2013-06-08 01:41:00,49.7,46.6,29.91,ENE,76,0.0,0.0,89,0.00,,,0.00,Wunderground v.1.15,2013-06-08 06:41:00,
2013-06-08 01:43:00,49.7,46.6,29.91,ENE,76,0.0,0.0,89,0.00,,,0.00,Wunderground v.1.15,2013-06-08 06:43:00,
2013-06-08 01:45:00,49.7,46.6,29.91,ENE,76,0.0,0.0,89,0.00,,,0.00,Wunderground v.1.15,2013-06-08 06:45:00,
2013-06-08 01:48:00,49.7,46.6,29.90,ENE,76,0.0,0.0,89,0.00,,,0.00,Wunderground v.1.15,2013-06-08 06:48:00,
2013-06-08 01:49:00,49.7,46.6,29.91,ENE,76,0.0,0.0,89,0.00,,,0.00,Wunderground v.1.15,2013-06-08 06:49:00,
2013-06-08 01:50:00,49.7,46.6,29.91,ENE,76,0.0,0.0,89,0.00,,,0.00,Wunderground v.1.15,2013-06-08 06:50:00,
2013-06-08 01:56:00,49.5,46.1,29.91,ENE,76,0.0,0.0,88,0.00,,,0.00,Wunderground v.1.15,2013-06-08 06:56:00,
2013-06-08 01:57:00,49.5,46.1,29.91,ENE,76,0.0,0.0,88,0.00,,,0.00,Wunderground v.1.15,2013-06-08 06:57:00,
2013-06-08 01:58:00,49.4,46.0,29.91,ENE,76,0.0,0.0,88,0.00,,,0.00,Wunderground v.1.15,2013-06-08 06:58:00,
2013-06-08 01:59:00,49.4,46.0,29.91,ENE,76,0.0,0.0,88,0.00,,,0.00,Wunderground v.1.15,2013-06-08 06:59:00,
2013-06-08 02:03:00,49.2,45.8,29.91,ENE,76,0.0,0.0,88,0.00,,,0.00,Wunderground v.1.15,2013-06-08 07:03:00,
2013-06-08 02:05:00,49.2,46.1,29.91,ENE,76,0.0,0.0,89,0.00,,,0.00,Wunderground v.1.15,2013-06-08 07:05:00,
2013-06-08 02:06:00,49.1,46.0,29.91,ENE,76,0.0,0.0,89,0.00,,,0.00,Wunderground v.1.15,2013-06-08 07:06:00,
2013-06-08 02:09:00,49.0,45.9,29.91,ENE,76,0.0,0.0,89,0.00,,,0.00,Wunderground v.1.15,2013-06-08 07:09:00,
2013-06-08 02:10:00,49.0,45.9,29.91,ENE,76,0.0,0.0,89,0.00,,,0.00,Wunderground v.1.15,2013-06-08 07:10:00,
2013-06-08 02:13:00,48.9,45.5,29.91,ENE,76,0.0,0.0,88,0.00,,,0.00,Wunderground v.1.15,2013-06-08 07:13:00,
2013-06-08 02:14:00,48.8,45.4,29.91,ENE,76,0.0,0.0,88,0.00,,,0.00,Wunderground v.1.15,2013-06-08 07:14:00,
2013-06-08 02:16:00,48.7,45.6,29.91,ENE,76,0.0,0.0,89,0.00,,,0.00,Wunderground v.1.15,2013-06-08 07:16:00,
2013-06-08 02:18:00,48.7,45.6,29.92,ENE,76,0.0,0.0,89,0.00,,,0.00,Wunderground v.1.15,2013-06-08 07:18:00,
2013-06-08 02:19:00,48.6,45.5,29.92,ENE,76,0.0,0.0,89,0.00,,,0.00,Wunderground v.1.15,2013-06-08 07:19:00,
2013-06-08 02:21:00,48.6,45.5,29.92,ENE,76,0.0,0.0,89,0.00,,,0.00,Wunderground v.1.15,2013-06-08 07:21:00,
2013-06-08 02:23:00,48.5,45.4,29.92,ENE,76,0.0,0.0,89,0.00,,,0.00,Wunderground v.1.15,2013-06-08 07:23:00,
2013-06-08 02:25:00,48.5,45.4,29.92,ENE,76,0.0,0.0,89,0.00,,,0.00,Wunderground v.1.15,2013-06-08 07:25:00,
2013-06-08 02:26:00,48.5,45.7,29.91,ENE,76,0.0,0.0,90,0.00,,,0.00,Wunderground v.1.15,2013-06-08 07:26:00,
2013-06-08 02:27:00,48.5,45.7,29.92,ENE,76,0.0,0.0,90,0.00,,,0.00,Wunderground v.1.15,2013-06-08 07:27:00,
2013-06-08 02:30:00,48.5,45.7,29.92,ENE,76,0.0,0.0,90,0.00,,,0.00,Wunderground v.1.15,2013-06-08 07:30:00,
2013-06-08 02:32:00,48.5,45.7,29.92,ENE,76,0.0,0.0,90,0.00,,,0.00,Wunderground v.1.15,2013-06-08 07:32:00,
2013-06-08 02:33:00,48.5,45.7,29.92,ENE,76,0.0,0.0,90,0.00,,,0.00,Wunderground v.1.15,2013-06-08 07:33:00,
2013-06-08 02:34:00,48.5,45.7,29.92,ENE,76,0.0,0.0,90,0.00,,,0.00,Wunderground v.1.15,2013-06-08 07:34:00,
2013-06-08 02:36:00,48.4,45.6,29.92,ENE,76,0.0,0.0,90,0.00,,,0.00,Wunderground v.1.15,2013-06-08 07:36:00,
2013-06-08 02:39:00,48.5,46.0,29.92,ENE,76,0.0,0.0,91,0.00,,,0.00,Wunderground v.1.15,2013-06-08 07:39:00,
2013-06-08 02:42:00,48.6,46.1,29.92,ENE,76,0.0,0.0,91,0.00,,,0.00,Wunderground v.1.15,2013-06-08 07:42:00,
2013-06-08 02:43:00,48.6,46.1,29.92,ENE,76,0.0,0.0,91,0.00,,,0.00,Wunderground v.1.15,2013-06-08 07:43:00,
2013-06-08 02:44:00,48.6,46.1,29.92,ENE,76,0.0,0.0,91,0.00,,,0.00,Wunderground v.1.15,2013-06-08 07:44:00,
2013-06-08 02:47:00,48.6,46.1,29.92,ENE,76,0.0,0.0,91,0.00,,,0.00,Wunderground v.1.15,2013-06-08 07:47:00,
2013-06-08 02:48:00,48.6,46.1,29.92,ENE,76,0.0,0.0,91,0.00,,,0.00,Wunderground v.1.15,2013-06-08 07:48:00,
2013-06-08 02:49:00,48.6,46.1,29.92,ENE,76,0.0,0.0,91,0.00,,,0.00,Wunderground v.1.15,2013-06-08 07:49:00,
2013-06-08 02:50:00,48.6,46.1,29.92,ENE,76,0.0,0.0,91,0.00,,,0.00,Wunderground v.1.15,2013-06-08 07:50:00,
2013-06-08 02:51:00,48.6,45.8,29.92,ENE,76,0.0,0.0,90,0.00,,,0.00,Wunderground v.1.15,2013-06-08 07:51:00,
2013-06-08 02:54:00,48.6,45.8,29.92,ENE,76,0.0,0.0,90,0.00,,,0.00,Wunderground v.1.15,2013-06-08 07:54:00,
2013-06-08 02:56:00,48.6,46.1,29.92,ENE,76,0.0,0.0,91,0.00,,,0.00,Wunderground v.1.15,2013-06-08 07:56:00,
2013-06-08 02:59:00,48.6,45.8,29.92,ENE,76,0.0,0.0,90,0.00,,,0.00,Wunderground v.1.15,2013-06-08 07:59:00,
2013-06-08 03:00:00,48.6,45.8,29.92,ENE,76,0.0,0.0,90,0.00,,,0.00,Wunderground v.1.15,2013-06-08 08:00:00,
2013-06-08 03:01:00,48.7,46.2,29.92,ENE,76,0.0,0.0,91,0.00,,,0.00,Wunderground v.1.15,2013-06-08 08:01:00,
2013-06-08 03:02:00,48.7,46.2,29.92,ENE,76,0.0,0.0,91,0.00,,,0.00,Wunderground v.1.15,2013-06-08 08:02:00,
2013-06-08 03:06:00,48.7,46.2,29.92,ENE,76,0.0,0.0,91,0.00,,,0.00,Wunderground v.1.15,2013-06-08 08:06:00,
2013-06-08 03:08:00,48.7,45.9,29.92,ENE,76,0.0,0.0,90,0.00,,,0.00,Wunderground v.1.15,2013-06-08 08:08:00,
2013-06-08 03:09:00,48.7,45.9,29.92,ENE,76,0.0,0.0,90,0.00,,,0.00,Wunderground v.1.15,2013-06-08 08:09:00,
2013-06-08 03:11:00,48.7,46.2,29.92,ENE,76,0.0,0.0,91,0.00,,,0.00,Wunderground v.1.15,2013-06-08 08:11:00,
2013-06-08 03:12:00,48.7,46.2,29.92,ENE,76,0.0,0.0,91,0.00,,,0.00,Wunderground v.1.15,2013-06-08 08:12:00,
2013-06-08 03:13:00,48.7,45.9,29.92,ENE,76,0.0,0.0,90,0.00,,,0.00,Wunderground v.1.15,2013-06-08 08:13:00,
2013-06-08 03:16:00,48.7,45.9,29.92,ENE,76,0.0,0.0,90,0.00,,,0.00,Wunderground v.1.15,2013-06-08 08:16:00,
2013-06-08 03:17:00,48.7,45.9,29.92,ENE,76,0.0,0.0,90,0.00,,,0.00,Wunderground v.1.15,2013-06-08 08:17:00,
2013-06-08 03:19:00,48.6,45.8,29.92,ENE,76,0.0,0.0,90,0.00,,,0.00,Wunderground v.1.15,2013-06-08 08:19:00,
2013-06-08 03:20:00,48.6,45.8,29.92,ENE,76,0.0,0.0,90,0.00,,,0.00,Wunderground v.1.15,2013-06-08 08:20:00,
2013-06-08 03:23:00,48.5,45.7,29.92,ENE,76,0.0,0.0,90,0.00,,,0.00,Wunderground v.1.15,2013-06-08 08:23:00,
2013-06-08 03:24:00,48.5,45.7,29.92,ENE,76,0.0,0.0,90,0.00,,,0.00,Wunderground v.1.15,2013-06-08 08:24:00,
2013-06-08 03:27:00,48.4,45.6,29.92,ENE,76,0.0,0.0,90,0.00,,,0.00,Wunderground v.1.15,2013-06-08 08:27:00,
2013-06-08 03:29:00,48.4,45.6,29.92,ENE,76,0.0,0.0,90,0.00,,,0.00,Wunderground v.1.15,2013-06-08 08:29:00,
2013-06-08 03:31:00,48.3,45.5,29.92,ENE,76,0.0,0.0,90,0.00,,,0.00,Wunderground v.1.15,2013-06-08 08:31:00,
2013-06-08 03:33:00,48.3,45.5,29.92,ENE,76,0.0,0.0,90,0.00,,,0.00,Wunderground v.1.15,2013-06-08 08:33:00,
2013-06-08 03:37:00,48.2,45.4,29.92,ENE,76,0.0,0.0,90,0.00,,,0.00,Wunderground v.1.15,2013-06-08 08:37:00,
2013-06-08 03:38:00,48.2,45.4,29.92,ENE,76,0.0,0.0,90,0.00,,,0.00,Wunderground v.1.15,2013-06-08 08:38:00,
2013-06-08 03:40:00,48.2,45.7,29.92,ENE,76,0.0,0.0,91,0.00,,,0.00,Wunderground v.1.15,2013-06-08 08:40:00,
2013-06-08 03:44:00,48.2,45.7,29.91,ENE,76,0.0,0.0,91,0.00,,,0.00,Wunderground v.1.15,2013-06-08 08:44:00,
2013-06-08 03:45:00,48.2,45.7,29.92,ENE,76,0.0,0.0,91,0.00,,,0.00,Wunderground v.1.15,2013-06-08 08:45:00,
2013-06-08 03:51:00,48.1,45.6,29.92,ENE,76,0.0,0.0,91,0.00,,,0.00,Wunderground v.1.15,2013-06-08 08:51:00,
2013-06-08 03:53:00,48.0,45.5,29.92,ENE,76,0.0,0.0,91,0.00,,,0.00,Wunderground v.1.15,2013-06-08 08:53:00,
2013-06-08 03:54:00,48.0,45.5,29.92,ENE,76,0.0,0.0,91,0.00,,,0.00,Wunderground v.1.15,2013-06-08 08:54:00,
2013-06-08 03:55:00,48.0,45.5,29.92,ENE,76,0.0,0.0,91,0.00,,,0.00,Wunderground v.1.15,2013-06-08 08:55:00,
2013-06-08 03:56:00,48.0,45.5,29.92,ENE,76,0.0,0.0,91,0.00,,,0.00,Wunderground v.1.15,2013-06-08 08:56:00,
2013-06-08 03:58:00,47.9,45.4,29.92,ENE,76,0.0,0.0,91,0.00,,,0.00,Wunderground v.1.15,2013-06-08 08:58:00,
2013-06-08 04:01:00,47.8,45.3,29.92,ENE,76,0.0,0.0,91,0.00,,,0.00,Wunderground v.1.15,2013-06-08 09:01:00,
2013-06-08 04:02:00,47.8,45.3,29.92,ENE,76,0.0,0.0,91,0.00,,,0.00,Wunderground v.1.15,2013-06-08 09:02:00,
2013-06-08 04:04:00,47.8,45.3,29.92,ENE,76,0.0,0.0,91,0.00,,,0.00,Wunderground v.1.15,2013-06-08 09:04:00,
2013-06-08 04:05:00,47.7,45.2,29.92,ENE,76,0.0,0.0,91,0.00,,,0.00,Wunderground v.1.15,2013-06-08 09:05:00,
2013-06-08 04:08:00,47.6,44.8,29.92,ENE,76,0.0,0.0,90,0.00,,,0.00,Wunderground v.1.15,2013-06-08 09:08:00,
2013-06-08 04:09:00,47.5,44.7,29.92,ENE,76,0.0,0.0,90,0.00,,,0.00,Wunderground v.1.15,2013-06-08 09:09:00,
2013-06-08 04:12:00,47.4,44.6,29.92,ENE,76,0.0,0.0,90,0.00,,,0.00,Wunderground v.1.15,2013-06-08 09:12:00,
2013-06-08 04:14:00,47.3,44.5,29.92,ENE,76,0.0,0.0,90,0.00,,,0.00,Wunderground v.1.15,2013-06-08 09:14:00,
2013-06-08 04:16:00,47.1,44.3,29.92,ENE,76,0.0,0.0,90,0.00,,,0.00,Wunderground v.1.15,2013-06-08 09:16:00,
2013-06-08 04:17:00,47.1,44.3,29.92,ENE,76,0.0,0.0,90,0.00,,,0.00,Wunderground v.1.15,2013-06-08 09:17:00,
2013-06-08 04:18:00,47.0,44.2,29.92,ENE,76,0.0,0.0,90,0.00,,,0.00,Wunderground v.1.15,2013-06-08 09:18:00,
2013-06-08 04:20:00,46.9,44.1,29.92,ENE,76,0.0,0.0,90,0.00,,,0.00,Wunderground v.1.15,2013-06-08 09:20:00,
2013-06-08 04:21:00,46.9,44.1,29.92,ENE,76,0.0,0.0,90,0.00,,,0.00,Wunderground v.1.15,2013-06-08 09:21:00,
2013-06-08 04:22:00,46.8,44.3,29.92,ENE,76,0.0,0.0,91,0.00,,,0.00,Wunderground v.1.15,2013-06-08 09:22:00,
2013-06-08 04:24:00,46.8,44.3,29.92,ENE,76,0.0,0.0,91,0.00,,,0.00,Wunderground v.1.15,2013-06-08 09:24:00,
2013-06-08 04:28:00,46.8,44.3,29.92,ENE,76,0.0,0.0,91,0.00,,,0.00,Wunderground v.1.15,2013-06-08 09:28:00,
2013-06-08 04:31:00,46.7,44.2,29.92,ENE,76,0.0,0.0,91,0.00,,,0.00,Wunderground v.1.15,2013-06-08 09:31:00,
2013-06-08 04:32:00,46.7,44.2,29.92,ENE,76,0.0,0.0,91,0.00,,,0.00,Wunderground v.1.15,2013-06-08 09:32:00,
2013-06-08 04:33:00,46.7,44.2,29.92,ENE,76,0.0,0.0,91,0.00,,,0.00,Wunderground v.1.15,2013-06-08 09:33:00,
2013-06-08 04:34:00,46.6,44.1,29.92,ENE,76,0.0,0.0,91,0.00,,,0.00,Wunderground v.1.15,2013-06-08 09:34:00,
2013-06-08 04:37:00,46.6,44.4,29.92,ENE,76,0.0,0.0,92,0.00,,,0.00,Wunderground v.1.15,2013-06-08 09:37:00,
2013-06-08 04:38:00,46.6,44.4,29.92,ENE,76,0.0,0.0,92,0.00,,,0.00,Wunderground v.1.15,2013-06-08 09:38:00,
2013-06-08 04:42:00,46.6,44.4,29.92,ENE,76,0.0,0.0,92,0.00,,,0.00,Wunderground v.1.15,2013-06-08 09:42:00,
2013-06-08 04:44:00,46.6,44.4,29.92,ENE,76,0.0,0.0,92,0.00,,,0.00,Wunderground v.1.15,2013-06-08 09:44:00,
2013-06-08 04:45:00,46.7,44.5,29.92,ENE,76,0.0,0.0,92,0.00,,,0.00,Wunderground v.1.15,2013-06-08 09:45:00,
2013-06-08 04:48:00,46.7,44.5,29.92,ENE,76,0.0,0.0,92,0.00,,,0.00,Wunderground v.1.15,2013-06-08 09:48:00,
2013-06-08 04:49:00,46.7,44.5,29.92,ENE,76,0.0,0.0,92,0.00,,,0.00,Wunderground v.1.15,2013-06-08 09:49:00,
2013-06-08 04:52:00,46.7,44.5,29.92,ENE,76,0.0,0.0,92,0.00,,,0.00,Wunderground v.1.15,2013-06-08 09:52:00,
2013-06-08 04:53:00,46.7,44.5,29.92,ENE,76,0.0,0.0,92,0.00,,,0.00,Wunderground v.1.15,2013-06-08 09:53:00,
2013-06-08 04:55:00,46.7,44.5,29.92,ENE,76,0.0,0.0,92,0.00,,,0.00,Wunderground v.1.15,2013-06-08 09:55:00,
2013-06-08 04:59:00,46.5,44.3,29.92,ENE,76,0.0,0.0,92,0.00,,,0.00,Wunderground v.1.15,2013-06-08 09:59:00,
2013-06-08 05:00:00,46.5,44.3,29.92,ENE,76,0.0,0.0,92,0.00,,,0.00,Wunderground v.1.15,2013-06-08 10:00:00,
2013-06-08 05:02:00,46.4,44.2,29.92,ENE,76,0.0,0.0,92,0.00,,,0.00,Wunderground v.1.15,2013-06-08 10:02:00,
2013-06-08 05:08:00,46.2,44.0,29.93,ENE,76,0.0,0.0,92,0.00,,,0.00,Wunderground v.1.15,2013-06-08 10:08:00,
2013-06-08 05:10:00,46.1,43.9,29.93,ENE,76,0.0,0.0,92,0.00,,,0.00,Wunderground v.1.15,2013-06-08 10:10:00,
2013-06-08 05:11:00,46.1,43.9,29.93,ENE,76,0.0,0.0,92,0.00,,,0.00,Wunderground v.1.15,2013-06-08 10:11:00,
2013-06-08 05:14:00,46.0,43.8,29.93,ENE,76,0.0,0.0,92,0.00,,,0.00,Wunderground v.1.15,2013-06-08 10:14:00,
2013-06-08 05:15:00,46.0,43.8,29.93,ENE,76,0.0,0.0,92,0.00,,,0.00,Wunderground v.1.15,2013-06-08 10:15:00,
2013-06-08 05:17:00,46.0,43.8,29.93,ENE,76,0.0,0.0,92,0.00,,,0.00,Wunderground v.1.15,2013-06-08 10:17:00,
2013-06-08 05:18:00,45.9,43.7,29.93,ENE,76,0.0,0.0,92,0.00,,,0.00,Wunderground v.1.15,2013-06-08 10:18:00,
2013-06-08 05:22:00,45.9,43.7,29.93,ENE,76,0.0,0.0,92,0.00,,,0.00,Wunderground v.1.15,2013-06-08 10:22:00,
2013-06-08 05:23:00,45.9,43.7,29.93,ENE,76,0.0,0.0,92,0.00,,,0.00,Wunderground v.1.15,2013-06-08 10:23:00,
2013-06-08 05:27:00,45.9,44.0,29.93,ENE,76,0.0,0.0,93,0.00,,,0.00,Wunderground v.1.15,2013-06-08 10:27:00,
2013-06-08 05:28:00,45.9,44.0,29.93,ENE,76,0.0,0.0,93,0.00,,,0.00,Wunderground v.1.15,2013-06-08 10:28:00,
2013-06-08 05:30:00,45.9,44.0,29.93,ENE,76,0.0,0.0,93,0.00,,,0.00,Wunderground v.1.15,2013-06-08 10:30:00,
2013-06-08 05:31:00,45.9,44.0,29.93,ENE,76,0.0,0.0,93,0.00,,,0.00,Wunderground v.1.15,2013-06-08 10:31:00,
2013-06-08 05:33:00,45.9,44.0,29.93,ENE,76,0.0,0.0,93,0.00,,,0.00,Wunderground v.1.15,2013-06-08 10:33:00,
2013-06-08 05:36:00,45.9,44.0,29.93,ENE,76,0.0,0.0,93,0.00,,,0.00,Wunderground v.1.15,2013-06-08 10:36:00,
2013-06-08 05:37:00,45.9,44.0,29.93,ENE,76,0.0,0.0,93,0.00,,,0.00,Wunderground v.1.15,2013-06-08 10:37:00,
2013-06-08 05:38:00,45.9,44.0,29.93,ENE,76,0.0,0.0,93,0.00,,,0.00,Wunderground v.1.15,2013-06-08 10:38:00,
2013-06-08 05:39:00,45.9,44.0,29.93,ENE,76,0.0,0.0,93,0.00,,,0.00,Wunderground v.1.15,2013-06-08 10:39:00,
2013-06-08 05:44:00,46.1,44.2,29.93,ENE,76,0.0,0.0,93,0.00,,,0.00,Wunderground v.1.15,2013-06-08 10:44:00,
2013-06-08 05:45:00,46.1,44.5,29.93,ENE,76,0.0,0.0,94,0.00,,,0.00,Wunderground v.1.15,2013-06-08 10:45:00,
2013-06-08 05:47:00,46.2,44.6,29.93,ENE,76,0.0,0.0,94,0.00,,,0.00,Wunderground v.1.15,2013-06-08 10:47:00,
2013-06-08 05:51:00,46.5,44.9,29.93,ENE,76,0.0,0.0,94,0.00,,,0.00,Wunderground v.1.15,2013-06-08 10:51:00,
2013-06-08 05:52:00,46.6,45.0,29.93,ENE,76,0.0,0.0,94,0.00,,,0.00,Wunderground v.1.15,2013-06-08 10:52:00,
2013-06-08 05:53:00,46.7,45.1,29.93,ENE,76,0.0,0.0,94,0.00,,,0.00,Wunderground v.1.15,2013-06-08 10:53:00,
2013-06-08 05:55:00,46.8,45.2,29.93,ENE,76,0.0,0.0,94,0.00,,,0.00,Wunderground v.1.15,2013-06-08 10:55:00,
2013-06-08 05:58:00,47.1,45.7,29.93,ENE,76,0.0,0.0,95,0.00,,,0.00,Wunderground v.1.15,2013-06-08 10:58:00,
2013-06-08 05:59:00,47.2,45.8,29.93,ENE,76,0.0,0.0,95,0.00,,,0.00,Wunderground v.1.15,2013-06-08 10:59:00,
2013-06-08 06:00:00,47.3,45.9,29.93,ENE,76,0.0,0.0,95,0.00,,,0.00,Wunderground v.1.15,2013-06-08 11:00:00,
2013-06-08 06:01:00,47.4,46.0,29.93,ENE,76,0.0,0.0,95,0.00,,,0.00,Wunderground v.1.15,2013-06-08 11:01:00,
2013-06-08 06:02:00,47.4,46.0,29.93,ENE,76,0.0,0.0,95,0.00,,,0.00,Wunderground v.1.15,2013-06-08 11:02:00,
2013-06-08 06:03:00,47.5,46.1,29.93,ENE,76,0.0,0.0,95,0.00,,,0.00,Wunderground v.1.15,2013-06-08 11:03:00,
2013-06-08 06:04:00,47.5,46.1,29.93,ENE,76,0.0,0.0,95,0.00,,,0.00,Wunderground v.1.15,2013-06-08 11:04:00,
2013-06-08 06:08:00,47.8,46.2,29.93,ENE,76,0.0,0.0,94,0.00,,,0.00,Wunderground v.1.15,2013-06-08 11:08:00,
2013-06-08 06:09:00,47.8,46.2,29.93,ENE,76,0.0,0.0,94,0.00,,,0.00,Wunderground v.1.15,2013-06-08 11:09:00,
2013-06-08 06:10:00,47.9,46.3,29.93,ENE,76,0.0,0.0,94,0.00,,,0.00,Wunderground v.1.15,2013-06-08 11:10:00,
2013-06-08 06:12:00,48.0,46.6,29.93,ENE,76,0.0,0.0,95,0.00,,,0.00,Wunderground v.1.15,2013-06-08 11:12:00,
2013-06-08 06:15:00,48.1,46.7,29.93,ENE,76,0.0,0.0,95,0.00,,,0.00,Wunderground v.1.15,2013-06-08 11:15:00,
2013-06-08 06:17:00,48.2,46.6,29.93,ENE,76,0.0,0.0,94,0.00,,,0.00,Wunderground v.1.15,2013-06-08 11:17:00,
2013-06-08 06:19:00,48.3,46.7,29.93,ENE,76,0.0,0.0,94,0.00,,,0.00,Wunderground v.1.15,2013-06-08 11:19:00,
2013-06-08 06:20:00,48.3,46.7,29.93,ENE,76,0.0,0.0,94,0.00,,,0.00,Wunderground v.1.15,2013-06-08 11:20:00,
2013-06-08 06:22:00,48.4,46.8,29.93,ENE,76,0.0,0.0,94,0.00,,,0.00,Wunderground v.1.15,2013-06-08 11:22:00,
2013-06-08 06:23:00,48.5,46.9,29.93,ENE,76,0.0,0.0,94,0.00,,,0.00,Wunderground v.1.15,2013-06-08 11:23:00,
2013-06-08 06:25:00,48.5,46.9,29.93,ENE,76,0.0,0.0,94,0.00,,,0.00,Wunderground v.1.15,2013-06-08 11:25:00,
2013-06-08 06:28:00,48.8,47.4,29.93,ENE,76,0.0,0.0,95,0.00,,,0.00,Wunderground v.1.15,2013-06-08 11:28:00,
2013-06-08 06:31:00,49.0,47.6,29.93,ENE,76,0.0,0.0,95,0.00,,,0.00,Wunderground v.1.15,2013-06-08 11:31:00,
2013-06-08 06:32:00,49.1,47.7,29.94,ENE,76,0.0,0.0,95,0.00,,,0.00,Wunderground v.1.15,2013-06-08 11:32:00,
2013-06-08 06:33:00,49.2,47.8,29.94,ENE,76,0.0,0.0,95,0.00,,,0.00,Wunderground v.1.15,2013-06-08 11:33:00,
2013-06-08 06:35:00,49.4,48.0,29.94,ENE,76,0.0,0.0,95,0.00,,,0.00,Wunderground v.1.15,2013-06-08 11:35:00,
2013-06-08 06:36:00,49.5,48.1,29.94,ENE,76,0.0,0.0,95,0.00,,,0.00,Wunderground v.1.15,2013-06-08 11:36:00,
2013-06-08 06:39:00,49.8,48.4,29.94,ENE,76,0.0,0.0,95,0.00,,,0.00,Wunderground v.1.15,2013-06-08 11:39:00,
2013-06-08 06:41:00,50.1,48.7,29.94,ENE,76,0.0,0.0,95,0.00,,,0.00,Wunderground v.1.15,2013-06-08 11:41:00,
2013-06-08 06:43:00,50.2,48.8,29.94,ENE,76,0.0,0.0,95,0.00,,,0.00,Wunderground v.1.15,2013-06-08 11:43:00,
2013-06-08 06:46:00,50.6,49.2,29.94,ENE,76,0.0,0.0,95,0.00,,,0.00,Wunderground v.1.15,2013-06-08 11:46:00,
2013-06-08 06:47:00,50.6,49.2,29.94,ENE,76,0.0,0.0,95,0.00,,,0.00,Wunderground v.1.15,2013-06-08 11:47:00,
2013-06-08 06:49:00,51.0,49.6,29.94,ENE,76,0.0,0.0,95,0.00,,,0.00,Wunderground v.1.15,2013-06-08 11:49:00,
2013-06-08 06:52:00,51.2,49.8,29.95,ENE,76,0.0,0.0,95,0.00,,,0.00,Wunderground v.1.15,2013-06-08 11:52:00,
2013-06-08 06:53:00,51.3,49.9,29.95,ENE,76,0.0,0.0,95,0.00,,,0.00,Wunderground v.1.15,2013-06-08 11:53:00,
2013-06-08 06:55:00,51.5,50.1,29.95,ENE,76,0.0,0.0,95,0.00,,,0.00,Wunderground v.1.15,2013-06-08 11:55:00,
2013-06-08 06:59:00,52.0,50.3,29.95,ENE,76,0.0,0.0,94,0.00,,,0.00,Wunderground v.1.15,2013-06-08 11:59:00,
2013-06-08 07:00:00,52.1,50.4,29.95,ENE,76,0.0,0.0,94,0.00,,,0.00,Wunderground v.1.15,2013-06-08 12:00:00,
2013-06-08 07:01:00,52.3,50.6,29.95,ENE,76,0.0,0.0,94,0.00,,,0.00,Wunderground v.1.15,2013-06-08 12:01:00,
2013-06-08 07:04:00,52.6,50.6,29.95,ENE,76,0.0,0.0,93,0.00,,,0.00,Wunderground v.1.15,2013-06-08 12:04:00,
2013-06-08 07:07:00,53.0,50.7,29.95,ENE,76,0.0,0.0,92,0.00,,,0.00,Wunderground v.1.15,2013-06-08 12:07:00,
2013-06-08 07:08:00,53.1,50.8,29.95,ENE,76,0.0,0.0,92,0.00,,,0.00,Wunderground v.1.15,2013-06-08 12:08:00,
2013-06-08 07:12:00,53.5,50.9,29.95,ENE,76,0.0,0.0,91,0.00,,,0.00,Wunderground v.1.15,2013-06-08 12:12:00,
2013-06-08 07:15:00,53.9,50.7,29.94,ENE,76,0.0,0.0,89,0.00,,,0.00,Wunderground v.1.15,2013-06-08 12:15:00,
2013-06-08 07:17:00,54.1,50.3,29.95,ENE,76,0.0,0.0,87,0.00,,,0.00,Wunderground v.1.15,2013-06-08 12:17:00,
2013-06-08 07:18:00,54.2,50.4,29.95,ENE,76,0.0,1.0,87,0.00,,,0.00,Wunderground v.1.15,2013-06-08 12:18:00,
2013-06-08 07:19:00,54.4,50.3,29.95,ENE,76,0.0,0.0,86,0.00,,,0.00,Wunderground v.1.15,2013-06-08 12:19:00,
2013-06-08 07:21:00,54.5,49.8,29.95,ENE,76,0.0,0.0,84,0.00,,,0.00,Wunderground v.1.15,2013-06-08 12:21:00,
2013-06-08 07:25:00,55.0,49.6,29.95,ENE,76,0.0,0.0,82,0.00,,,0.00,Wunderground v.1.15,2013-06-08 12:25:00,
2013-06-08 07:27:00,55.3,49.6,29.95,ENE,76,0.0,0.0,81,0.00,,,0.00,Wunderground v.1.15,2013-06-08 12:27:00,
2013-06-08 07:28:00,55.5,50.1,29.95,ENE,76,0.0,0.0,82,0.00,,,0.00,Wunderground v.1.15,2013-06-08 12:28:00,
2013-06-08 07:30:00,55.8,50.1,29.95,ENE,76,0.0,1.0,81,0.00,,,0.00,Wunderground v.1.15,2013-06-08 12:30:00,
2013-06-08 07:32:00,56.1,49.7,29.96,ENE,76,0.0,1.0,79,0.00,,,0.00,Wunderground v.1.15,2013-06-08 12:32:00,
2013-06-08 07:33:00,56.3,49.5,29.96,ENE,76,0.0,1.0,78,0.00,,,0.00,Wunderground v.1.15,2013-06-08 12:33:00,
2013-06-08 07:34:00,56.5,49.4,29.96,ENE,76,0.0,1.0,77,0.00,,,0.00,Wunderground v.1.15,2013-06-08 12:34:00,
2013-06-08 07:37:00,57.0,48.8,29.96,ENE,78,0.0,1.0,74,0.00,,,0.00,Wunderground v.1.15,2013-06-08 12:37:00,
2013-06-08 07:38:00,57.2,49.0,29.96,ENE,78,0.0,2.0,74,0.00,,,0.00,Wunderground v.1.15,2013-06-08 12:38:00,
2013-06-08 07:41:00,57.7,48.0,29.96,ENE,78,1.0,2.0,70,0.00,,,0.00,Wunderground v.1.15,2013-06-08 12:41:00,
2013-06-08 07:43:00,57.9,48.2,29.96,ENE,78,1.0,2.0,70,0.00,,,0.00,Wunderground v.1.15,2013-06-08 12:43:00,
2013-06-08 07:46:00,58.4,48.3,29.95,East,80,1.0,2.0,69,0.00,,,0.00,Wunderground v.1.15,2013-06-08 12:46:00,
2013-06-08 07:49:00,58.7,48.6,29.95,East,84,1.0,3.0,69,0.00,,,0.00,Wunderground v.1.15,2013-06-08 12:49:00,
2013-06-08 07:50:00,58.8,48.6,29.95,East,84,1.0,3.0,69,0.00,,,0.00,Wunderground v.1.15,2013-06-08 12:50:00,
2013-06-08 07:51:00,59.0,49.2,29.96,East,84,1.0,3.0,70,0.00,,,0.00,Wunderground v.1.15,2013-06-08 12:51:00,
2013-06-08 07:55:00,59.4,48.8,29.95,East,84,1.0,3.0,68,0.00,,,0.00,Wunderground v.1.15,2013-06-08 12:55:00,
2013-06-08 07:57:00,59.6,49.4,29.96,East,84,1.0,3.0,69,0.00,,,0.00,Wunderground v.1.15,2013-06-08 12:57:00,
2013-06-08 07:58:00,59.7,49.5,29.96,East,84,1.0,3.0,69,0.00,,,0.00,Wunderground v.1.15,2013-06-08 12:58:00,
2013-06-08 07:59:00,59.8,50.0,29.96,East,84,1.0,3.0,70,0.00,,,0.00,Wunderground v.1.15,2013-06-08 12:59:00,
2013-06-08 08:01:00,60.0,49.8,29.96,East,84,1.0,1.0,69,0.00,,,0.00,Wunderground v.1.15,2013-06-08 13:01:00,
2013-06-08 08:02:00,60.1,49.5,29.96,East,84,1.0,1.0,68,0.00,,,0.00,Wunderground v.1.15,2013-06-08 13:02:00,
2013-06-08 08:03:00,60.2,49.6,29.96,East,84,1.0,1.0,68,0.00,,,0.00,Wunderground v.1.15,2013-06-08 13:03:00,
2013-06-08 08:08:00,60.7,50.1,29.96,East,84,1.0,3.0,68,0.00,,,0.00,Wunderground v.1.15,2013-06-08 13:08:00,
2013-06-08 08:09:00,60.8,50.6,29.96,East,84,1.0,3.0,69,0.00,,,0.00,Wunderground v.1.15,2013-06-08 13:09:00,
2013-06-08 08:10:00,60.9,50.3,29.96,East,85,1.0,2.0,68,0.00,,,0.00,Wunderground v.1.15,2013-06-08 13:10:00,
2013-06-08 08:13:00,61.3,50.2,29.96,ESE,102,1.0,2.0,67,0.00,,,0.00,Wunderground v.1.15,2013-06-08 13:13:00,
2013-06-08 08:15:00,61.6,50.1,29.96,ESE,102,1.0,2.0,66,0.00,,,0.00,Wunderground v.1.15,2013-06-08 13:15:00,
2013-06-08 08:19:00,62.1,49.8,29.96,ESE,123,2.0,3.0,64,0.00,,,0.00,Wunderground v.1.15,2013-06-08 13:19:00,
2013-06-08 08:20:00,62.2,49.9,29.96,ESE,123,2.0,2.0,64,0.00,,,0.00,Wunderground v.1.15,2013-06-08 13:20:00,
2013-06-08 08:21:00,62.4,50.1,29.96,ESE,123,2.0,3.0,64,0.00,,,0.00,Wunderground v.1.15,2013-06-08 13:21:00,
2013-06-08 08:22:00,62.5,48.9,29.96,SE,126,2.0,3.0,61,0.00,,,0.00,Wunderground v.1.15,2013-06-08 13:22:00,
2013-06-08 08:24:00,62.7,47.2,29.96,SE,132,2.0,4.0,57,0.00,,,0.00,Wunderground v.1.15,2013-06-08 13:24:00,
2013-06-08 08:25:00,62.7,47.7,29.96,SE,132,2.0,4.0,58,0.00,,,0.00,Wunderground v.1.15,2013-06-08 13:25:00,
2013-06-08 08:26:00,62.9,48.3,29.96,SE,132,2.0,4.0,59,0.00,,,0.00,Wunderground v.1.15,2013-06-08 13:26:00,
2013-06-08 08:27:00,63.0,47.5,29.96,SE,132,2.0,4.0,57,0.00,,,0.00,Wunderground v.1.15,2013-06-08 13:27:00,
2013-06-08 08:29:00,63.1,47.1,29.96,SE,132,2.0,4.0,56,0.00,,,0.00,Wunderground v.1.15,2013-06-08 13:29:00,
2013-06-08 08:32:00,63.3,48.3,29.96,SE,131,2.0,3.0,58,0.00,,,0.00,Wunderground v.1.15,2013-06-08 13:32:00,
2013-06-08 08:34:00,63.5,47.5,29.95,SE,130,2.0,3.0,56,0.00,,,0.00,Wunderground v.1.15,2013-06-08 13:34:00,
2013-06-08 08:35:00,63.6,47.1,29.96,SE,130,1.0,3.0,55,0.00,,,0.00,Wunderground v.1.15,2013-06-08 13:35:00,
2013-06-08 08:36:00,63.7,47.7,29.96,SE,130,1.0,3.0,56,0.00,,,0.00,Wunderground v.1.15,2013-06-08 13:36:00,
2013-06-08 08:40:00,64.2,48.6,29.96,SE,131,1.0,3.0,57,0.00,,,0.00,Wunderground v.1.15,2013-06-08 13:40:00,
2013-06-08 08:42:00,64.4,48.8,29.95,SE,132,1.0,3.0,57,0.00,,,0.00,Wunderground v.1.15,2013-06-08 13:42:00,
2013-06-08 08:43:00,64.5,48.4,29.95,SE,131,1.0,3.0,56,0.00,,,0.00,Wunderground v.1.15,2013-06-08 13:43:00,
2013-06-08 08:44:00,64.6,48.5,29.96,SE,131,1.0,3.0,56,0.00,,,0.00,Wunderground v.1.15,2013-06-08 13:44:00,
2013-06-08 08:46:00,64.9,48.8,29.95,SE,132,1.0,3.0,56,0.00,,,0.00,Wunderground v.1.15,2013-06-08 13:46:00,
2013-06-08 08:48:00,65.0,47.4,29.95,SE,132,1.0,3.0,53,0.00,,,0.00,Wunderground v.1.15,2013-06-08 13:48:00,
2013-06-08 08:49:00,65.1,47.5,29.96,SE,132,1.0,3.0,53,0.00,,,0.00,Wunderground v.1.15,2013-06-08 13:49:00,
2013-06-08 08:50:00,65.2,48.1,29.95,SE,132,1.0,1.0,54,0.00,,,0.00,Wunderground v.1.15,2013-06-08 13:50:00,
2013-06-08 08:51:00,65.4,47.8,29.95,SE,132,1.0,1.0,53,0.00,,,0.00,Wunderground v.1.15,2013-06-08 13:51:00,
2013-06-08 08:56:00,65.8,46.1,29.96,SE,128,1.0,4.0,49,0.00,,,0.00,Wunderground v.1.15,2013-06-08 13:56:00,
2013-06-08 08:57:00,65.9,46.2,29.96,SE,128,1.0,4.0,49,0.00,,,0.00,Wunderground v.1.15,2013-06-08 13:57:00,
2013-06-08 08:58:00,66.0,46.3,29.96,SE,128,1.0,4.0,49,0.00,,,0.00,Wunderground v.1.15,2013-06-08 13:58:00,
2013-06-08 09:02:00,66.2,45.4,29.96,SE,129,1.0,5.0,47,0.00,,,0.00,Wunderground v.1.15,2013-06-08 14:02:00,
2013-06-08 09:04:00,66.3,44.9,29.96,SE,129,1.0,5.0,46,0.00,,,0.00,Wunderground v.1.15,2013-06-08 14:04:00,
2013-06-08 09:05:00,66.3,44.3,29.96,SE,129,1.0,5.0,45,0.00,,,0.00,Wunderground v.1.15,2013-06-08 14:05:00,
2013-06-08 09:10:00,66.5,45.6,29.95,SE,130,2.0,2.0,47,0.00,,,0.00,Wunderground v.1.15,2013-06-08 14:10:00,
2013-06-08 09:12:00,66.5,45.6,29.94,SE,131,2.0,2.0,47,0.00,,,0.00,Wunderground v.1.15,2013-06-08 14:12:00,
2013-06-08 09:14:00,66.6,47.9,29.94,SE,131,1.0,2.0,51,0.00,,,0.00,Wunderground v.1.15,2013-06-08 14:14:00,
2013-06-08 09:15:00,66.6,47.9,29.94,SE,130,1.0,2.0,51,0.00,,,0.00,Wunderground v.1.15,2013-06-08 14:15:00,
2013-06-08 09:16:00,66.7,46.9,29.94,SE,130,1.0,2.0,49,0.00,,,0.00,Wunderground v.1.15,2013-06-08 14:16:00,
2013-06-08 09:21:00,67.0,46.1,29.94,SE,135,1.0,3.0,47,0.00,,,0.00,Wunderground v.1.15,2013-06-08 14:21:00,
2013-06-08 09:22:00,67.0,46.1,29.94,SE,135,1.0,3.0,47,0.00,,,0.00,Wunderground v.1.15,2013-06-08 14:22:00,
2013-06-08 09:24:00,67.1,46.7,29.94,SE,136,1.0,3.0,48,0.00,,,0.00,Wunderground v.1.15,2013-06-08 14:24:00,
2013-06-08 09:27:00,67.4,47.6,29.94,SE,134,1.0,4.0,49,0.00,,,0.00,Wunderground v.1.15,2013-06-08 14:27:00,
2013-06-08 09:28:00,67.5,47.1,29.94,SE,134,1.0,4.0,48,0.00,,,0.00,Wunderground v.1.15,2013-06-08 14:28:00,
2013-06-08 09:30:00,67.7,45.0,29.94,SE,134,1.0,4.0,44,0.00,,,0.00,Wunderground v.1.15,2013-06-08 14:30:00,
2013-06-08 09:31:00,67.8,45.7,29.94,SE,134,2.0,4.0,45,0.00,,,0.00,Wunderground v.1.15,2013-06-08 14:31:00,
2013-06-08 09:33:00,67.9,45.8,29.94,SE,134,1.0,4.0,45,0.00,,,0.00,Wunderground v.1.15,2013-06-08 14:33:00,
2013-06-08 09:34:00,68.0,47.0,29.94,SE,134,1.0,4.0,47,0.00,,,0.00,Wunderground v.1.15,2013-06-08 14:34:00,
2013-06-08 09:35:00,68.0,47.0,29.94,SE,134,1.0,4.0,47,0.00,,,0.00,Wunderground v.1.15,2013-06-08 14:35:00,
2013-06-08 09:37:00,68.2,46.6,29.94,SE,132,2.0,4.0,46,0.00,,,0.00,Wunderground v.1.15,2013-06-08 14:37:00,
2013-06-08 09:39:00,68.5,46.3,29.94,SE,132,1.0,3.0,45,0.00,,,0.00,Wunderground v.1.15,2013-06-08 14:39:00,
2013-06-08 09:41:00,68.6,45.2,29.94,SE,136,1.0,3.0,43,0.00,,,0.00,Wunderground v.1.15,2013-06-08 14:41:00,
2013-06-08 09:42:00,68.6,46.4,29.94,SE,136,2.0,3.0,45,0.00,,,0.00,Wunderground v.1.15,2013-06-08 14:42:00,
2013-06-08 09:44:00,68.8,48.3,29.94,SE,136,1.0,3.0,48,0.00,,,0.00,Wunderground v.1.15,2013-06-08 14:44:00,
2013-06-08 09:46:00,69.0,49.0,29.95,SE,138,1.0,3.0,49,0.00,,,0.00,Wunderground v.1.15,2013-06-08 14:46:00,
2013-06-08 09:48:00,69.2,46.4,29.94,SE,139,1.0,5.0,44,0.00,,,0.00,Wunderground v.1.15,2013-06-08 14:48:00,
2013-06-08 09:49:00,69.2,45.7,29.94,SE,139,2.0,5.0,43,0.00,,,0.00,Wunderground v.1.15,2013-06-08 14:49:00,
2013-06-08 09:52:00,69.3,47.6,29.95,SE,142,2.0,2.0,46,0.00,,,0.00,Wunderground v.1.15,2013-06-08 14:52:00,
2013-06-08 09:53:00,69.4,47.1,29.95,SSE,149,2.0,2.0,45,0.00,,,0.00,Wunderground v.1.15,2013-06-08 14:53:00,
2013-06-08 09:55:00,69.4,45.9,29.95,SSE,150,2.0,2.0,43,0.00,,,0.00,Wunderground v.1.15,2013-06-08 14:55:00,
2013-06-08 09:56:00,69.4,47.1,29.95,SSE,150,2.0,2.0,45,0.00,,,0.00,Wunderground v.1.15,2013-06-08 14:56:00,
2013-06-08 09:59:00,69.5,47.8,29.95,South,184,2.0,5.0,46,0.00,,,0.00,Wunderground v.1.15,2013-06-08 14:59:00,
2013-06-08 10:00:00,69.6,46.7,29.95,South,188,2.0,4.0,44,0.00,,,0.00,Wunderground v.1.15,2013-06-08 15:00:00,
2013-06-08 10:02:00,69.6,44.2,29.95,South,185,2.0,4.0,40,0.00,,,0.00,Wunderground v.1.15,2013-06-08 15:02:00,
2013-06-08 10:03:00,69.6,44.8,29.95,South,185,2.0,4.0,41,0.00,,,0.00,Wunderground v.1.15,2013-06-08 15:03:00,
2013-06-08 10:06:00,69.7,46.2,29.95,South,180,2.0,4.0,43,0.00,,,0.00,Wunderground v.1.15,2013-06-08 15:06:00,
2013-06-08 10:08:00,69.8,45.7,29.95,South,173,2.0,4.0,42,0.00,,,0.00,Wunderground v.1.15,2013-06-08 15:08:00,
2013-06-08 10:09:00,69.8,45.0,29.95,South,171,2.0,4.0,41,0.00,,,0.00,Wunderground v.1.15,2013-06-08 15:09:00,
2013-06-08 10:12:00,70.0,46.5,29.95,South,171,1.0,1.0,43,0.00,,,0.00,Wunderground v.1.15,2013-06-08 15:12:00,
2013-06-08 10:13:00,70.1,46.6,29.95,South,171,1.0,1.0,43,0.00,,,0.00,Wunderground v.1.15,2013-06-08 15:13:00,
2013-06-08 10:14:00,70.1,45.9,29.95,South,171,1.0,1.0,42,0.00,,,0.00,Wunderground v.1.15,2013-06-08 15:14:00,
2013-06-08 10:16:00,70.3,47.3,29.95,SE,134,1.0,5.0,44,0.00,,,0.00,Wunderground v.1.15,2013-06-08 15:16:00,
2013-06-08 10:17:00,70.3,45.5,29.95,SE,134,2.0,5.0,41,0.00,,,0.00,Wunderground v.1.15,2013-06-08 15:17:00,
2013-06-08 10:19:00,70.3,46.1,29.95,SE,137,2.0,5.0,42,0.00,,,0.00,Wunderground v.1.15,2013-06-08 15:19:00,
2013-06-08 10:20:00,70.4,46.8,29.95,SE,137,2.0,2.0,43,0.00,,,0.00,Wunderground v.1.15,2013-06-08 15:20:00,
2013-06-08 10:21:00,70.4,45.6,29.95,SE,136,2.0,2.0,41,0.00,,,0.00,Wunderground v.1.15,2013-06-08 15:21:00,
2013-06-08 10:22:00,70.4,45.6,29.95,SE,136,2.0,3.0,41,0.00,,,0.00,Wunderground v.1.15,2013-06-08 15:22:00,
2013-06-08 10:24:00,70.5,47.5,29.95,South,178,2.0,4.0,44,0.00,,,0.00,Wunderground v.1.15,2013-06-08 15:24:00,
2013-06-08 10:25:00,70.5,45.7,29.95,South,177,2.0,4.0,41,0.00,,,0.00,Wunderground v.1.15,2013-06-08 15:25:00,
2013-06-08 10:26:00,70.5,46.3,29.95,South,179,2.0,4.0,42,0.00,,,0.00,Wunderground v.1.15,2013-06-08 15:26:00,
2013-06-08 10:27:00,70.5,46.3,29.95,South,179,2.0,4.0,42,0.00,,,0.00,Wunderground v.1.15,2013-06-08 15:27:00,
2013-06-08 10:30:00,70.6,48.2,29.95,SSE,155,1.0,2.0,45,0.00,,,0.00,Wunderground v.1.15,2013-06-08 15:30:00,
2013-06-08 10:31:00,70.6,47.0,29.95,South,186,2.0,2.0,43,0.00,,,0.00,Wunderground v.1.15,2013-06-08 15:31:00,
2013-06-08 10:32:00,70.7,47.1,29.95,South,187,2.0,4.0,43,0.00,,,0.00,Wunderground v.1.15,2013-06-08 15:32:00,
2013-06-08 10:36:00,70.7,47.1,29.95,South,180,3.0,4.0,43,0.00,,,0.00,Wunderground v.1.15,2013-06-08 15:36:00,
2013-06-08 10:38:00,70.7,46.5,29.95,South,180,3.0,4.0,42,0.00,,,0.00,Wunderground v.1.15,2013-06-08 15:38:00,
2013-06-08 10:39:00,70.6,45.7,29.95,South,179,3.0,4.0,41,0.00,,,0.00,Wunderground v.1.15,2013-06-08 15:39:00,
2013-06-08 10:41:00,70.5,45.7,29.95,South,188,3.0,4.0,41,0.00,,,0.00,Wunderground v.1.15,2013-06-08 15:41:00,
2013-06-08 10:42:00,70.5,45.7,29.95,South,188,3.0,4.0,41,0.00,,,0.00,Wunderground v.1.15,2013-06-08 15:42:00,
2013-06-08 10:45:00,70.3,44.8,29.96,SSW,196,3.0,4.0,40,0.00,,,0.00,Wunderground v.1.15,2013-06-08 15:45:00,
2013-06-08 10:46:00,70.1,45.3,29.96,SSW,192,3.0,4.0,41,0.00,,,0.00,Wunderground v.1.15,2013-06-08 15:46:00,
2013-06-08 10:47:00,70.1,44.6,29.96,SSW,192,3.0,4.0,40,0.00,,,0.00,Wunderground v.1.15,2013-06-08 15:47:00,
2013-06-08 10:48:00,70.0,44.6,29.96,SSW,192,3.0,4.0,40,0.00,,,0.00,Wunderground v.1.15,2013-06-08 15:48:00,
2013-06-08 10:50:00,69.8,46.9,29.96,South,174,3.0,3.0,44,0.00,,,0.00,Wunderground v.1.15,2013-06-08 15:50:00,
2013-06-08 10:52:00,69.7,46.8,29.96,South,174,2.0,3.0,44,0.00,,,0.00,Wunderground v.1.15,2013-06-08 15:52:00,
2013-06-08 10:56:00,69.8,46.9,29.96,South,174,1.0,3.0,44,0.00,,,0.00,Wunderground v.1.15,2013-06-08 15:56:00,
2013-06-08 10:57:00,69.8,47.5,29.96,South,174,1.0,3.0,45,0.00,,,0.00,Wunderground v.1.15,2013-06-08 15:57:00,
2013-06-08 10:58:00,69.9,47.0,29.96,South,174,1.0,4.0,44,0.00,,,0.00,Wunderground v.1.15,2013-06-08 15:58:00,
2013-06-08 11:01:00,70.1,45.9,29.96,SSE,165,1.0,4.0,42,0.00,,,0.00,Wunderground v.1.15,2013-06-08 16:01:00,
2013-06-08 11:04:00,70.2,46.6,29.96,SSE,157,1.0,4.0,43,0.00,,,0.00,Wunderground v.1.15,2013-06-08 16:04:00,
2013-06-08 11:05:00,70.2,46.6,29.96,SE,143,2.0,4.0,43,0.00,,,0.00,Wunderground v.1.15,2013-06-08 16:05:00,
2013-06-08 11:06:00,70.3,46.7,29.96,SSE,161,2.0,4.0,43,0.00,,,0.00,Wunderground v.1.15,2013-06-08 16:06:00,
2013-06-08 11:07:00,70.4,45.6,29.96,SSE,163,2.0,4.0,41,0.00,,,0.00,Wunderground v.1.15,2013-06-08 16:07:00,
2013-06-08 11:11:00,70.6,46.4,29.96,SSE,165,2.0,3.0,42,0.00,,,0.00,Wunderground v.1.15,2013-06-08 16:11:00,
2013-06-08 11:13:00,70.7,47.7,29.95,SSE,164,3.0,3.0,44,0.00,,,0.00,Wunderground v.1.15,2013-06-08 16:13:00,
2013-06-08 11:14:00,70.7,47.7,29.96,SSE,164,3.0,3.0,44,0.00,,,0.00,Wunderground v.1.15,2013-06-08 16:14:00,
2013-06-08 11:16:00,70.8,45.3,29.96,SSE,167,3.0,4.0,40,0.00,,,0.00,Wunderground v.1.15,2013-06-08 16:16:00,
2013-06-08 11:17:00,70.8,45.3,29.96,South,170,2.0,5.0,40,0.00,,,0.00,Wunderground v.1.15,2013-06-08 16:17:00,
2013-06-08 11:19:00,71.0,45.5,29.96,SSE,158,2.0,5.0,40,0.00,,,0.00,Wunderground v.1.15,2013-06-08 16:19:00,
2013-06-08 11:20:00,71.1,45.5,29.96,SSE,158,2.0,2.0,40,0.00,,,0.00,Wunderground v.1.15,2013-06-08 16:20:00,
2013-06-08 11:26:00,71.5,45.9,29.95,ESE,108,3.0,5.0,40,0.00,,,0.00,Wunderground v.1.15,2013-06-08 16:26:00,
2013-06-08 11:27:00,71.5,44.5,29.95,ESE,107,3.0,5.0,38,0.00,,,0.00,Wunderground v.1.15,2013-06-08 16:27:00,
2013-06-08 11:29:00,71.5,47.2,29.95,ESE,106,2.0,5.0,42,0.00,,,0.00,Wunderground v.1.15,2013-06-08 16:29:00,
2013-06-08 11:31:00,71.6,47.9,29.96,ESE,105,2.0,3.0,43,0.00,,,0.00,Wunderground v.1.15,2013-06-08 16:31:00,
2013-06-08 11:32:00,71.6,47.9,29.95,ESE,105,3.0,3.0,43,0.00,,,0.00,Wunderground v.1.15,2013-06-08 16:32:00,
2013-06-08 11:35:00,71.7,47.4,29.96,SE,126,2.0,3.0,42,0.00,,,0.00,Wunderground v.1.15,2013-06-08 16:35:00,
2013-06-08 11:36:00,71.8,48.1,29.96,SE,128,2.0,3.0,43,0.00,,,0.00,Wunderground v.1.15,2013-06-08 16:36:00,
2013-06-08 11:39:00,71.8,49.3,29.96,SE,127,2.0,3.0,45,0.00,,,0.00,Wunderground v.1.15,2013-06-08 16:39:00,
2013-06-08 11:41:00,71.8,48.1,29.96,SSE,148,2.0,4.0,43,0.00,,,0.00,Wunderground v.1.15,2013-06-08 16:41:00,
2013-06-08 11:44:00,71.7,46.7,29.95,SSE,148,2.0,4.0,41,0.00,,,0.00,Wunderground v.1.15,2013-06-08 16:44:00,
2013-06-08 11:46:00,71.7,46.7,29.95,SSE,163,1.0,4.0,41,0.00,,,0.00,Wunderground v.1.15,2013-06-08 16:46:00,
2013-06-08 11:47:00,71.7,46.7,29.96,SSE,163,2.0,4.0,41,0.00,,,0.00,Wunderground v.1.15,2013-06-08 16:47:00,
2013-06-08 11:48:00,71.6,46.6,29.96,SSE,163,2.0,4.0,41,0.00,,,0.00,Wunderground v.1.15,2013-06-08 16:48:00,
2013-06-08 11:49:00,71.6,47.9,29.96,SSE,163,2.0,4.0,43,0.00,,,0.00,Wunderground v.1.15,2013-06-08 16:49:00,
2013-06-08 11:52:00,71.6,49.1,29.96,SSE,165,1.0,7.0,45,0.00,,,0.00,Wunderground v.1.15,2013-06-08 16:52:00,
2013-06-08 11:54:00,71.5,45.2,29.95,South,181,2.0,7.0,39,0.00,,,0.00,Wunderground v.1.15,2013-06-08 16:54:00,
2013-06-08 11:55:00,71.5,47.2,29.96,SSW,200,2.0,7.0,42,0.00,,,0.00,Wunderground v.1.15,2013-06-08 16:55:00,
2013-06-08 11:59:00,71.2,47.6,29.96,SSW,209,2.0,7.0,43,0.00,,,0.00,Wunderground v.1.15,2013-06-08 16:59:00,
2013-06-08 12:01:00,71.1,46.2,29.96,SSW,203,3.0,4.0,41,0.00,,,0.00,Wunderground v.1.15,2013-06-08 17:01:00,
2013-06-08 12:03:00,71.1,48.7,29.95,SSW,203,2.0,4.0,45,0.00,,,0.00,Wunderground v.1.15,2013-06-08 17:03:00,
2013-06-08 12:05:00,71.1,49.8,29.95,SSW,203,2.0,4.0,47,0.00,,,0.00,Wunderground v.1.15,2013-06-08 17:05:00,
2013-06-08 12:06:00,71.2,45.6,29.95,SSW,203,1.0,4.0,40,0.00,,,0.00,Wunderground v.1.15,2013-06-08 17:06:00,
2013-06-08 12:11:00,71.5,47.8,29.95,SSW,195,1.0,2.0,43,0.00,,,0.00,Wunderground v.1.15,2013-06-08 17:11:00,
2013-06-08 12:12:00,71.6,47.9,29.95,SSW,195,1.0,2.0,43,0.00,,,0.00,Wunderground v.1.15,2013-06-08 17:12:00,
2013-06-08 12:13:00,71.7,47.4,29.95,SSW,195,1.0,2.0,42,0.00,,,0.00,Wunderground v.1.15,2013-06-08 17:13:00,
2013-06-08 12:14:00,71.8,47.5,29.95,SSW,195,1.0,2.0,42,0.00,,,0.00,Wunderground v.1.15,2013-06-08 17:14:00,
2013-06-08 12:17:00,72.2,48.5,29.95,SE,141,1.0,2.0,43,0.00,,,0.00,Wunderground v.1.15,2013-06-08 17:17:00,
2013-06-08 12:18:00,72.3,47.9,29.95,ESE,117,1.0,5.0,42,0.00,,,0.00,Wunderground v.1.15,2013-06-08 17:18:00,
2013-06-08 12:19:00,72.4,47.4,29.95,ESE,113,1.0,5.0,41,0.00,,,0.00,Wunderground v.1.15,2013-06-08 17:19:00,
2013-06-08 12:20:00,72.5,49.3,29.95,ESE,117,2.0,4.0,44,0.00,,,0.00,Wunderground v.1.15,2013-06-08 17:20:00,
2013-06-08 12:21:00,72.6,48.2,29.95,SE,131,2.0,7.0,42,0.00,,,0.00,Wunderground v.1.15,2013-06-08 17:21:00,
2013-06-08 12:23:00,72.6,46.9,29.95,SE,139,2.0,7.0,40,0.00,,,0.00,Wunderground v.1.15,2013-06-08 17:23:00,
2013-06-08 12:24:00,72.7,50.7,29.95,SE,142,2.0,7.0,46,0.00,,,0.00,Wunderground v.1.15,2013-06-08 17:24:00,
2013-06-08 12:27:00,72.7,47.0,29.95,SE,143,3.0,7.0,40,0.00,,,0.00,Wunderground v.1.15,2013-06-08 17:27:00,
2013-06-08 12:30:00,72.7,50.7,29.95,SE,143,2.0,2.0,46,0.00,,,0.00,Wunderground v.1.15,2013-06-08 17:30:00,
2013-06-08 12:32:00,72.8,49.6,29.95,SE,143,1.0,2.0,44,0.00,,,0.00,Wunderground v.1.15,2013-06-08 17:32:00,
2013-06-08 12:34:00,72.8,49.0,29.94,SSE,150,1.0,3.0,43,0.00,,,0.00,Wunderground v.1.15,2013-06-08 17:34:00,
2013-06-08 12:35:00,72.8,48.4,29.94,SSE,150,1.0,3.0,42,0.00,,,0.00,Wunderground v.1.15,2013-06-08 17:35:00,
2013-06-08 12:38:00,73.0,47.9,29.94,SSE,150,1.0,3.0,41,0.00,,,0.00,Wunderground v.1.15,2013-06-08 17:38:00,
2013-06-08 12:39:00,73.0,49.2,29.94,SSW,197,1.0,4.0,43,0.00,,,0.00,Wunderground v.1.15,2013-06-08 17:39:00,
2013-06-08 12:41:00,73.1,48.0,29.94,South,190,2.0,6.0,41,0.00,,,0.00,Wunderground v.1.15,2013-06-08 17:41:00,
2013-06-08 12:42:00,73.1,47.3,29.94,South,190,2.0,6.0,40,0.00,,,0.00,Wunderground v.1.15,2013-06-08 17:42:00,
2013-06-08 12:44:00,73.1,47.3,29.94,South,189,2.0,6.0,40,0.00,,,0.00,Wunderground v.1.15,2013-06-08 17:44:00,
2013-06-08 12:48:00,73.3,50.1,29.93,South,188,3.0,6.0,44,0.00,,,0.00,Wunderground v.1.15,2013-06-08 17:48:00,
2013-06-08 12:50:00,73.3,48.8,29.93,South,188,2.0,2.0,42,0.00,,,0.00,Wunderground v.1.15,2013-06-08 17:50:00,
2013-06-08 12:51:00,73.4,51.9,29.93,South,188,2.0,3.0,47,0.00,,,0.00,Wunderground v.1.15,2013-06-08 17:51:00,
2013-06-08 12:52:00,73.5,49.6,29.93,South,188,2.0,3.0,43,0.00,,,0.00,Wunderground v.1.15,2013-06-08 17:52:00,
2013-06-08 12:55:00,73.7,51.6,29.93,South,190,1.0,3.0,46,0.00,,,0.00,Wunderground v.1.15,2013-06-08 17:55:00,
2013-06-08 12:58:00,73.9,47.4,29.93,South,190,1.0,3.0,39,0.00,,,0.00,Wunderground v.1.15,2013-06-08 17:58:00,
2013-06-08 12:59:00,73.9,49.4,29.93,South,190,1.0,3.0,42,0.00,,,0.00,Wunderground v.1.15,2013-06-08 17:59:00,
2013-06-08 13:01:00,73.9,49.4,29.93,South,190,1.0,4.0,42,0.00,,,0.00,Wunderground v.1.15,2013-06-08 18:01:00,
2013-06-08 13:04:00,74.0,50.7,29.93,South,190,1.0,4.0,44,0.00,,,0.00,Wunderground v.1.15,2013-06-08 18:04:00,
2013-06-08 13:05:00,74.0,48.8,29.93,South,190,1.0,4.0,41,0.00,,,0.00,Wunderground v.1.15,2013-06-08 18:05:00,
2013-06-08 13:06:00,74.1,50.2,29.93,South,190,1.0,4.0,43,0.00,,,0.00,Wunderground v.1.15,2013-06-08 18:06:00,
2013-06-08 13:07:00,74.1,50.2,29.93,South,190,1.0,4.0,43,0.00,,,0.00,Wunderground v.1.15,2013-06-08 18:07:00,
2013-06-08 13:09:00,74.1,50.2,29.93,South,171,1.0,4.0,43,0.00,,,0.00,Wunderground v.1.15,2013-06-08 18:09:00,
2013-06-08 13:10:00,74.1,50.8,29.93,South,169,1.0,3.0,44,0.00,,,0.00,Wunderground v.1.15,2013-06-08 18:10:00,
2013-06-08 13:11:00,74.1,47.6,29.93,South,169,1.0,3.0,39,0.00,,,0.00,Wunderground v.1.15,2013-06-08 18:11:00,
2013-06-08 13:13:00,74.0,49.4,29.93,South,169,1.0,3.0,42,0.00,,,0.00,Wunderground v.1.15,2013-06-08 18:13:00,
2013-06-08 13:15:00,73.9,48.7,29.93,South,169,1.0,3.0,41,0.00,,,0.00,Wunderground v.1.15,2013-06-08 18:15:00,
2013-06-08 13:18:00,73.8,49.9,29.93,South,169,1.0,3.0,43,0.00,,,0.00,Wunderground v.1.15,2013-06-08 18:18:00,
2013-06-08 13:19:00,73.8,49.9,29.93,South,169,1.0,3.0,43,0.00,,,0.00,Wunderground v.1.15,2013-06-08 18:19:00,
2013-06-08 13:20:00,73.8,51.1,29.93,South,169,1.0,1.0,45,0.00,,,0.00,Wunderground v.1.15,2013-06-08 18:20:00,
2013-06-08 13:21:00,73.8,49.9,29.93,South,169,0.0,1.0,43,0.00,,,0.00,Wunderground v.1.15,2013-06-08 18:21:00,
2013-06-08 13:25:00,73.9,50.0,29.93,South,169,0.0,2.0,43,0.00,,,0.00,Wunderground v.1.15,2013-06-08 18:25:00,
2013-06-08 13:26:00,73.9,49.4,29.93,South,169,0.0,2.0,42,0.00,,,0.00,Wunderground v.1.15,2013-06-08 18:26:00,
2013-06-08 13:28:00,74.0,50.1,29.93,South,169,1.0,2.0,43,0.00,,,0.00,Wunderground v.1.15,2013-06-08 18:28:00,
2013-06-08 13:31:00,74.0,50.1,29.93,South,169,0.0,4.0,43,0.00,,,0.00,Wunderground v.1.15,2013-06-08 18:31:00,
2013-06-08 13:32:00,74.0,50.1,29.93,South,169,1.0,4.0,43,0.00,,,0.00,Wunderground v.1.15,2013-06-08 18:32:00,
2013-06-08 13:33:00,73.9,51.2,29.93,South,171,1.0,4.0,45,0.00,,,0.00,Wunderground v.1.15,2013-06-08 18:33:00,
2013-06-08 13:36:00,73.8,48.0,29.93,SSE,168,1.0,4.0,40,0.00,,,0.00,Wunderground v.1.15,2013-06-08 18:36:00,
2013-06-08 13:37:00,73.8,48.0,29.93,SSE,168,1.0,4.0,40,0.00,,,0.00,Wunderground v.1.15,2013-06-08 18:37:00,
2013-06-08 13:38:00,73.7,48.5,29.93,SSE,168,1.0,4.0,41,0.00,,,0.00,Wunderground v.1.15,2013-06-08 18:38:00,
2013-06-08 13:39:00,73.8,49.9,29.93,SSE,168,1.0,4.0,43,0.00,,,0.00,Wunderground v.1.15,2013-06-08 18:39:00,
2013-06-08 13:41:00,73.6,47.8,29.93,SSW,195,1.0,4.0,40,0.00,,,0.00,Wunderground v.1.15,2013-06-08 18:41:00,
2013-06-08 13:43:00,73.5,50.9,29.93,SSW,192,1.0,4.0,45,0.00,,,0.00,Wunderground v.1.15,2013-06-08 18:43:00,
2013-06-08 13:44:00,73.4,48.9,29.93,SSW,192,1.0,4.0,42,0.00,,,0.00,Wunderground v.1.15,2013-06-08 18:44:00,
2013-06-08 13:49:00,73.2,48.1,29.93,SSW,204,2.0,4.0,41,0.00,,,0.00,Wunderground v.1.15,2013-06-08 18:49:00,
2013-06-08 13:52:00,73.2,49.4,29.92,SSW,203,1.0,1.0,43,0.00,,,0.00,Wunderground v.1.15,2013-06-08 18:52:00,
2013-06-08 13:54:00,73.3,48.8,29.93,ESE,123,1.0,5.0,42,0.00,,,0.00,Wunderground v.1.15,2013-06-08 18:54:00,
2013-06-08 13:55:00,73.4,48.9,29.93,ESE,123,1.0,5.0,42,0.00,,,0.00,Wunderground v.1.15,2013-06-08 18:55:00,
2013-06-08 13:58:00,73.6,50.9,29.92,SE,143,1.0,5.0,45,0.00,,,0.00,Wunderground v.1.15,2013-06-08 18:58:00,
2013-06-08 13:59:00,73.7,50.4,29.93,SE,146,2.0,5.0,44,0.00,,,0.00,Wunderground v.1.15,2013-06-08 18:59:00,
2013-06-08 14:00:00,73.8,49.9,29.92,SSE,148,2.0,2.0,43,0.00,,,0.00,Wunderground v.1.15,2013-06-08 19:00:00,
2013-06-08 14:01:00,73.9,50.0,29.92,SSE,149,2.0,2.0,43,0.00,,,0.00,Wunderground v.1.15,2013-06-08 19:01:00,
2013-06-08 14:04:00,74.1,52.6,29.92,SSE,152,2.0,5.0,47,0.00,,,0.00,Wunderground v.1.15,2013-06-08 19:04:00,
2013-06-08 14:05:00,74.2,50.3,29.92,SSE,167,2.0,5.0,43,0.00,,,0.00,Wunderground v.1.15,2013-06-08 19:05:00,
2013-06-08 14:07:00,74.4,51.7,29.92,SSE,166,2.0,5.0,45,0.00,,,0.00,Wunderground v.1.15,2013-06-08 19:07:00,
2013-06-08 14:08:00,74.4,50.4,29.92,SSE,167,2.0,5.0,43,0.00,,,0.00,Wunderground v.1.15,2013-06-08 19:08:00,
2013-06-08 14:11:00,74.7,52.5,29.92,South,172,2.0,3.0,46,0.00,,,0.00,Wunderground v.1.15,2013-06-08 19:11:00,
2013-06-08 14:12:00,74.7,52.5,29.92,South,172,2.0,3.0,46,0.00,,,0.00,Wunderground v.1.15,2013-06-08 19:12:00,
2013-06-08 14:17:00,74.9,50.9,29.92,South,173,1.0,3.0,43,0.00,,,0.00,Wunderground v.1.15,2013-06-08 19:17:00,
2013-06-08 14:19:00,74.8,49.5,29.92,ESE,119,1.0,4.0,41,0.00,,,0.00,Wunderground v.1.15,2013-06-08 19:19:00,
2013-06-08 14:20:00,74.7,48.8,29.92,ESE,115,1.0,3.0,40,0.00,,,0.00,Wunderground v.1.15,2013-06-08 19:20:00,
2013-06-08 14:21:00,74.6,51.2,29.92,ESE,105,1.0,3.0,44,0.00,,,0.00,Wunderground v.1.15,2013-06-08 19:21:00,
2013-06-08 14:24:00,74.4,51.1,29.92,ENE,76,2.0,3.0,44,0.00,,,0.00,Wunderground v.1.15,2013-06-08 19:24:00,
2013-06-08 14:25:00,74.3,49.1,29.92,ENE,74,2.0,3.0,41,0.00,,,0.00,Wunderground v.1.15,2013-06-08 19:25:00,
2013-06-08 14:26:00,74.1,50.8,29.92,ENE,74,2.0,3.0,44,0.00,,,0.00,Wunderground v.1.15,2013-06-08 19:26:00,
2013-06-08 14:30:00,73.7,48.5,29.92,ENE,74,2.0,2.0,41,0.00,,,0.00,Wunderground v.1.15,2013-06-08 19:30:00,
2013-06-08 14:31:00,73.7,49.8,29.92,ENE,74,2.0,2.0,43,0.00,,,0.00,Wunderground v.1.15,2013-06-08 19:31:00,
2013-06-08 14:33:00,73.7,51.6,29.92,ENE,74,1.0,2.0,46,0.00,,,0.00,Wunderground v.1.15,2013-06-08 19:33:00,
2013-06-08 14:36:00,73.6,50.3,29.92,ENE,74,0.0,2.0,44,0.00,,,0.00,Wunderground v.1.15,2013-06-08 19:36:00,
2013-06-08 14:38:00,73.6,49.7,29.92,ENE,74,0.0,2.0,43,0.00,,,0.00,Wunderground v.1.15,2013-06-08 19:38:00,
2013-06-08 14:39:00,73.6,49.1,29.92,ENE,74,0.0,2.0,42,0.00,,,0.00,Wunderground v.1.15,2013-06-08 19:39:00,
2013-06-08 14:40:00,73.6,50.3,29.92,ENE,74,0.0,0.0,44,0.00,,,0.00,Wunderground v.1.15,2013-06-08 19:40:00,
2013-06-08 14:43:00,73.6,49.1,29.92,ENE,74,0.0,0.0,42,0.00,,,0.00,Wunderground v.1.15,2013-06-08 19:43:00,
2013-06-08 14:44:00,73.6,49.7,29.92,ENE,74,0.0,0.0,43,0.00,,,0.00,Wunderground v.1.15,2013-06-08 19:44:00,
2013-06-08 14:48:00,73.7,49.2,29.92,ESE,111,0.0,1.0,42,0.00,,,0.00,Wunderground v.1.15,2013-06-08 19:48:00,
2013-06-08 14:49:00,73.7,50.4,29.92,ESE,111,0.0,1.0,44,0.00,,,0.00,Wunderground v.1.15,2013-06-08 19:49:00,
2013-06-08 14:50:00,73.7,50.4,29.92,ESE,111,0.0,0.0,44,0.00,,,0.00,Wunderground v.1.15,2013-06-08 19:50:00,
2013-06-08 14:54:00,74.1,51.4,29.92,ESE,111,1.0,1.0,45,0.00,,,0.00,Wunderground v.1.15,2013-06-08 19:54:00,
2013-06-08 14:56:00,74.5,51.2,29.92,East,92,0.0,2.0,44,0.00,,,0.00,Wunderground v.1.15,2013-06-08 19:56:00,
2013-06-08 14:58:00,74.7,50.1,29.92,East,87,1.0,2.0,42,0.00,,,0.00,Wunderground v.1.15,2013-06-08 19:58:00,
2013-06-08 15:00:00,74.8,50.8,29.92,NE,56,1.0,4.0,43,0.00,,,0.00,Wunderground v.1.15,2013-06-08 20:00:00,
2013-06-08 15:01:00,74.8,50.8,29.92,ENE,59,1.0,4.0,43,0.00,,,0.00,Wunderground v.1.15,2013-06-08 20:01:00,
2013-06-08 15:02:00,74.8,50.8,29.92,ENE,59,1.0,4.0,43,0.00,,,0.00,Wunderground v.1.15,2013-06-08 20:02:00,
2013-06-08 15:04:00,74.8,49.5,29.92,NE,45,2.0,4.0,41,0.00,,,0.00,Wunderground v.1.15,2013-06-08 20:04:00,
2013-06-08 15:06:00,74.8,50.2,29.92,NE,44,2.0,4.0,42,0.00,,,0.00,Wunderground v.1.15,2013-06-08 20:06:00,
2013-06-08 15:10:00,75.0,52.2,29.92,NE,42,2.0,2.0,45,0.00,,,0.00,Wunderground v.1.15,2013-06-08 20:10:00,
2013-06-08 15:12:00,75.1,52.3,29.92,ESE,106,2.0,4.0,45,0.00,,,0.00,Wunderground v.1.15,2013-06-08 20:12:00,
2013-06-08 15:15:00,75.4,54.3,29.92,ESE,111,1.0,4.0,48,0.00,,,0.00,Wunderground v.1.15,2013-06-08 20:15:00,
2013-06-08 15:16:00,75.4,50.7,29.92,ESE,110,2.0,4.0,42,0.00,,,0.00,Wunderground v.1.15,2013-06-08 20:16:00,
2013-06-08 15:18:00,75.4,50.7,29.92,ESE,110,2.0,4.0,42,0.00,,,0.00,Wunderground v.1.15,2013-06-08 20:18:00,
2013-06-08 15:22:00,75.2,49.2,29.93,ESE,110,1.0,2.0,40,0.00,,,0.00,Wunderground v.1.15,2013-06-08 20:22:00,
2013-06-08 15:23:00,75.2,50.5,29.92,ESE,110,1.0,2.0,42,0.00,,,0.00,Wunderground v.1.15,2013-06-08 20:23:00,
2013-06-08 15:24:00,75.1,50.4,29.93,ESE,106,1.0,5.0,42,0.00,,,0.00,Wunderground v.1.15,2013-06-08 20:24:00,
2013-06-08 15:25:00,75.1,49.8,29.93,ESE,105,1.0,5.0,41,0.00,,,0.00,Wunderground v.1.15,2013-06-08 20:25:00,
2013-06-08 15:30:00,74.7,50.7,29.92,SE,126,1.0,1.0,43,0.00,,,0.00,Wunderground v.1.15,2013-06-08 20:30:00,
2013-06-08 15:31:00,74.6,50.0,29.92,SE,126,1.0,3.0,42,0.00,,,0.00,Wunderground v.1.15,2013-06-08 20:31:00,
2013-06-08 15:32:00,74.6,50.0,29.93,SE,126,1.0,3.0,42,0.00,,,0.00,Wunderground v.1.15,2013-06-08 20:32:00,
2013-06-08 15:33:00,74.6,50.0,29.93,East,84,1.0,3.0,42,0.00,,,0.00,Wunderground v.1.15,2013-06-08 20:33:00,
2013-06-08 15:35:00,74.5,49.9,29.93,East,84,1.0,3.0,42,0.00,,,0.00,Wunderground v.1.15,2013-06-08 20:35:00,
2013-06-08 15:36:00,74.4,50.4,29.93,East,98,1.0,3.0,43,0.00,,,0.00,Wunderground v.1.15,2013-06-08 20:36:00,
2013-06-08 15:38:00,74.4,49.8,29.93,East,98,1.0,3.0,42,0.00,,,0.00,Wunderground v.1.15,2013-06-08 20:38:00,
2013-06-08 15:41:00,74.4,51.7,29.93,East,98,1.0,1.0,45,0.00,,,0.00,Wunderground v.1.15,2013-06-08 20:41:00,
2013-06-08 15:42:00,74.4,51.7,29.93,East,98,1.0,1.0,45,0.00,,,0.00,Wunderground v.1.15,2013-06-08 20:42:00,
2013-06-08 15:44:00,74.3,50.4,29.93,East,98,1.0,1.0,43,0.00,,,0.00,Wunderground v.1.15,2013-06-08 20:44:00,
2013-06-08 15:45:00,74.3,50.4,29.93,East,98,1.0,1.0,43,0.00,,,0.00,Wunderground v.1.15,2013-06-08 20:45:00,
2013-06-08 15:48:00,74.2,50.9,29.93,East,98,0.0,1.0,44,0.00,,,0.00,Wunderground v.1.15,2013-06-08 20:48:00,
2013-06-08 15:49:00,74.2,50.9,29.93,East,98,0.0,1.0,44,0.00,,,0.00,Wunderground v.1.15,2013-06-08 20:49:00,
2013-06-08 15:50:00,74.2,50.3,29.92,East,98,0.0,2.0,43,0.00,,,0.00,Wunderground v.1.15,2013-06-08 20:50:00,
2013-06-08 15:54:00,74.1,51.4,29.93,East,93,0.0,4.0,45,0.00,,,0.00,Wunderground v.1.15,2013-06-08 20:54:00,
2013-06-08 15:55:00,74.1,51.4,29.92,East,92,1.0,4.0,45,0.00,,,0.00,Wunderground v.1.15,2013-06-08 20:55:00,
2013-06-08 15:57:00,74.1,52.0,29.92,East,93,1.0,4.0,46,0.00,,,0.00,Wunderground v.1.15,2013-06-08 20:57:00,
2013-06-08 16:00:00,74.2,50.9,29.92,East,93,1.0,1.0,44,0.00,,,0.00,Wunderground v.1.15,2013-06-08 21:00:00,
2013-06-08 16:01:00,74.2,49.6,29.92,East,93,1.0,1.0,42,0.00,,,0.00,Wunderground v.1.15,2013-06-08 21:01:00,
2013-06-08 16:02:00,74.2,49.6,29.92,East,93,1.0,2.0,42,0.00,,,0.00,Wunderground v.1.15,2013-06-08 21:02:00,
2013-06-08 16:06:00,74.3,51.6,29.92,East,93,1.0,2.0,45,0.00,,,0.00,Wunderground v.1.15,2013-06-08 21:06:00,
2013-06-08 16:07:00,74.4,50.4,29.93,East,93,1.0,3.0,43,0.00,,,0.00,Wunderground v.1.15,2013-06-08 21:07:00,
2013-06-08 16:08:00,74.4,49.8,29.92,East,94,1.0,3.0,42,0.00,,,0.00,Wunderground v.1.15,2013-06-08 21:08:00,
2013-06-08 16:11:00,74.4,50.4,29.92,ESE,102,1.0,3.0,43,0.00,,,0.00,Wunderground v.1.15,2013-06-08 21:11:00,
2013-06-08 16:14:00,74.6,51.9,29.92,SE,134,2.0,3.0,45,0.00,,,0.00,Wunderground v.1.15,2013-06-08 21:14:00,
2013-06-08 16:15:00,74.7,51.9,29.92,SE,134,2.0,3.0,45,0.00,,,0.00,Wunderground v.1.15,2013-06-08 21:15:00,
2013-06-08 16:17:00,74.8,50.8,29.92,SE,134,2.0,3.0,43,0.00,,,0.00,Wunderground v.1.15,2013-06-08 21:17:00,
2013-06-08 16:19:00,75.0,52.8,29.92,SE,134,1.0,3.0,46,0.00,,,0.00,Wunderground v.1.15,2013-06-08 21:19:00,
2013-06-08 16:21:00,75.2,51.2,29.92,SE,126,1.0,1.0,43,0.00,,,0.00,Wunderground v.1.15,2013-06-08 21:21:00,
2013-06-08 16:22:00,75.3,51.3,29.92,SE,126,1.0,1.0,43,0.00,,,0.00,Wunderground v.1.15,2013-06-08 21:22:00,
2013-06-08 16:23:00,75.3,51.9,29.92,SE,126,1.0,1.0,44,0.00,,,0.00,Wunderground v.1.15,2013-06-08 21:23:00,
2013-06-08 16:25:00,75.4,52.6,29.92,SE,126,0.0,1.0,45,0.00,,,0.00,Wunderground v.1.15,2013-06-08 21:25:00,
2013-06-08 16:28:00,75.6,51.5,29.92,SE,126,0.0,1.0,43,0.00,,,0.00,Wunderground v.1.15,2013-06-08 21:28:00,
2013-06-08 16:29:00,75.6,50.9,29.92,SE,126,0.0,1.0,42,0.00,,,0.00,Wunderground v.1.15,2013-06-08 21:29:00,
2013-06-08 16:30:00,75.5,50.1,29.92,SE,126,0.0,0.0,41,0.00,,,0.00,Wunderground v.1.15,2013-06-08 21:30:00,
2013-06-08 16:31:00,75.6,50.9,29.92,SE,126,0.0,0.0,42,0.00,,,0.00,Wunderground v.1.15,2013-06-08 21:31:00,
2013-06-08 16:34:00,75.5,51.4,29.92,SE,126,0.0,0.0,43,0.00,,,0.00,Wunderground v.1.15,2013-06-08 21:34:00,
2013-06-08 16:36:00,75.3,50.0,29.92,SE,126,0.0,3.0,41,0.00,,,0.00,Wunderground v.1.15,2013-06-08 21:36:00,
2013-06-08 16:37:00,75.3,51.3,29.92,SE,126,0.0,3.0,43,0.00,,,0.00,Wunderground v.1.15,2013-06-08 21:37:00,
2013-06-08 16:38:00,75.2,49.9,29.92,SE,126,0.0,3.0,41,0.00,,,0.00,Wunderground v.1.15,2013-06-08 21:38:00,
2013-06-08 16:39:00,75.1,50.4,29.92,SE,126,0.0,3.0,42,0.00,,,0.00,Wunderground v.1.15,2013-06-08 21:39:00,
2013-06-08 16:44:00,74.9,52.1,29.92,SE,126,1.0,1.0,45,0.00,,,0.00,Wunderground v.1.15,2013-06-08 21:44:00,
2013-06-08 16:45:00,74.8,51.4,29.92,SE,126,1.0,1.0,44,0.00,,,0.00,Wunderground v.1.15,2013-06-08 21:45:00,
2013-06-08 16:46:00,74.8,52.0,29.92,ESE,123,1.0,1.0,45,0.00,,,0.00,Wunderground v.1.15,2013-06-08 21:46:00,
2013-06-08 16:47:00,74.8,53.2,29.92,ESE,123,0.0,1.0,47,0.00,,,0.00,Wunderground v.1.15,2013-06-08 21:47:00,
2013-06-08 16:51:00,74.9,51.5,29.92,ESE,123,0.0,1.0,44,0.00,,,0.00,Wunderground v.1.15,2013-06-08 21:51:00,
2013-06-08 16:52:00,75.0,51.0,29.92,ESE,123,0.0,3.0,43,0.00,,,0.00,Wunderground v.1.15,2013-06-08 21:52:00,
2013-06-08 16:54:00,74.9,52.1,29.92,ESE,114,1.0,4.0,45,0.00,,,0.00,Wunderground v.1.15,2013-06-08 21:54:00,
2013-06-08 16:55:00,74.9,52.1,29.92,ESE,114,1.0,4.0,45,0.00,,,0.00,Wunderground v.1.15,2013-06-08 21:55:00,
2013-06-08 16:58:00,74.9,52.1,29.92,ESE,114,0.0,4.0,45,0.00,,,0.00,Wunderground v.1.15,2013-06-08 21:58:00,
2013-06-08 16:59:00,74.8,52.6,29.92,ESE,114,0.0,4.0,46,0.00,,,0.00,Wunderground v.1.15,2013-06-08 21:59:00,
2013-06-08 17:00:00,74.8,52.0,29.92,ESE,114,0.0,0.0,45,0.00,,,0.00,Wunderground v.1.15,2013-06-08 22:00:00,
2013-06-08 17:01:00,74.8,50.8,29.92,ESE,114,0.0,0.0,43,0.00,,,0.00,Wunderground v.1.15,2013-06-08 22:01:00,
2013-06-08 17:07:00,74.8,52.6,29.92,ESE,115,1.0,3.0,46,0.00,,,0.00,Wunderground v.1.15,2013-06-08 22:07:00,
2013-06-08 17:08:00,74.8,53.8,29.92,ESE,115,1.0,3.0,48,0.00,,,0.00,Wunderground v.1.15,2013-06-08 22:08:00,
2013-06-08 17:13:00,74.8,52.6,29.92,ESE,103,2.0,3.0,46,0.00,,,0.00,Wunderground v.1.15,2013-06-08 22:13:00,
2013-06-08 17:14:00,74.9,51.5,29.92,East,101,2.0,3.0,44,0.00,,,0.00,Wunderground v.1.15,2013-06-08 22:14:00,
2013-06-08 17:15:00,74.9,50.3,29.92,East,101,2.0,3.0,42,0.00,,,0.00,Wunderground v.1.15,2013-06-08 22:15:00,
2013-06-08 17:18:00,74.9,51.5,29.92,East,101,2.0,3.0,44,0.00,,,0.00,Wunderground v.1.15,2013-06-08 22:18:00,
2013-06-08 17:19:00,75.0,50.3,29.92,East,98,2.0,3.0,42,0.00,,,0.00,Wunderground v.1.15,2013-06-08 22:19:00,
2013-06-08 17:21:00,75.0,52.2,29.92,East,98,1.0,2.0,45,0.00,,,0.00,Wunderground v.1.15,2013-06-08 22:21:00,
2013-06-08 17:23:00,75.1,51.7,29.92,East,98,1.0,2.0,44,0.00,,,0.00,Wunderground v.1.15,2013-06-08 22:23:00,
2013-06-08 17:25:00,75.2,52.4,29.92,East,98,1.0,2.0,45,0.00,,,0.00,Wunderground v.1.15,2013-06-08 22:25:00,
2013-06-08 17:27:00,75.3,53.7,29.92,East,98,1.0,2.0,47,0.00,,,0.00,Wunderground v.1.15,2013-06-08 22:27:00,
2013-06-08 17:29:00,75.2,52.4,29.92,ESE,106,1.0,3.0,45,0.00,,,0.00,Wunderground v.1.15,2013-06-08 22:29:00,
2013-06-08 17:30:00,75.2,51.2,29.92,ESE,106,1.0,1.0,43,0.00,,,0.00,Wunderground v.1.15,2013-06-08 22:30:00,
2013-06-08 17:31:00,75.1,51.1,29.92,ESE,106,1.0,1.0,43,0.00,,,0.00,Wunderground v.1.15,2013-06-08 22:31:00,
2013-06-08 17:32:00,75.1,52.3,29.92,ESE,106,1.0,1.0,45,0.00,,,0.00,Wunderground v.1.15,2013-06-08 22:32:00,
2013-06-08 17:36:00,75.0,52.2,29.92,ESE,106,1.0,1.0,45,0.00,,,0.00,Wunderground v.1.15,2013-06-08 22:36:00,
2013-06-08 17:38:00,74.9,50.9,29.92,ESE,109,0.0,2.0,43,0.00,,,0.00,Wunderground v.1.15,2013-06-08 22:38:00,
2013-06-08 17:39:00,74.9,50.3,29.92,SE,124,1.0,2.0,42,0.00,,,0.00,Wunderground v.1.15,2013-06-08 22:39:00,
2013-06-08 17:41:00,74.8,51.4,29.92,SE,124,1.0,1.0,44,0.00,,,0.00,Wunderground v.1.15,2013-06-08 22:41:00,
2013-06-08 17:43:00,74.7,51.3,29.92,SE,124,1.0,3.0,44,0.00,,,0.00,Wunderground v.1.15,2013-06-08 22:43:00,
2013-06-08 17:45:00,74.6,52.4,29.92,SE,124,1.0,3.0,46,0.00,,,0.00,Wunderground v.1.15,2013-06-08 22:45:00,
2013-06-08 17:47:00,74.6,53.0,29.92,SE,124,1.0,3.0,47,0.00,,,0.00,Wunderground v.1.15,2013-06-08 22:47:00,
2013-06-08 17:48:00,74.5,51.8,29.92,SE,124,1.0,3.0,45,0.00,,,0.00,Wunderground v.1.15,2013-06-08 22:48:00,
2013-06-08 17:53:00,74.3,51.6,29.92,SE,124,0.0,3.0,45,0.00,,,0.00,Wunderground v.1.15,2013-06-08 22:53:00,
2013-06-08 17:55:00,74.2,52.1,29.92,SE,124,1.0,3.0,46,0.00,,,0.00,Wunderground v.1.15,2013-06-08 22:55:00,
2013-06-08 17:58:00,74.1,52.0,29.92,SE,124,1.0,3.0,46,0.00,,,0.00,Wunderground v.1.15,2013-06-08 22:58:00,
2013-06-08 18:00:00,74.0,52.5,29.92,SE,124,1.0,1.0,47,0.00,,,0.00,Wunderground v.1.15,2013-06-08 23:00:00,
2013-06-08 18:01:00,73.9,52.4,29.92,SE,124,1.0,1.0,47,0.00,,,0.00,Wunderground v.1.15,2013-06-08 23:01:00,
2013-06-08 18:03:00,73.9,52.4,29.92,SE,124,0.0,1.0,47,0.00,,,0.00,Wunderground v.1.15,2013-06-08 23:03:00,
2013-06-08 18:06:00,73.7,53.3,29.92,SE,124,0.0,1.0,49,0.00,,,0.00,Wunderground v.1.15,2013-06-08 23:06:00,
2013-06-08 18:07:00,73.7,53.3,29.92,SE,124,0.0,2.0,49,0.00,,,0.00,Wunderground v.1.15,2013-06-08 23:07:00,
2013-06-08 18:09:00,73.5,52.0,29.92,SE,136,1.0,4.0,47,0.00,,,0.00,Wunderground v.1.15,2013-06-08 23:09:00,
2013-06-08 18:13:00,73.4,53.1,29.92,SE,136,1.0,1.0,49,0.00,,,0.00,Wunderground v.1.15,2013-06-08 23:13:00,
2013-06-08 18:14:00,73.4,52.5,29.92,SE,136,1.0,1.0,48,0.00,,,0.00,Wunderground v.1.15,2013-06-08 23:14:00,
2013-06-08 18:15:00,73.4,53.6,29.92,SE,136,1.0,1.0,50,0.00,,,0.00,Wunderground v.1.15,2013-06-08 23:15:00,
2013-06-08 18:17:00,73.3,52.4,29.92,SE,136,1.0,1.0,48,0.00,,,0.00,Wunderground v.1.15,2013-06-08 23:17:00,
2013-06-08 18:20:00,73.3,53.0,29.92,SE,136,0.0,0.0,49,0.00,,,0.00,Wunderground v.1.15,2013-06-08 23:20:00,
2013-06-08 18:23:00,73.3,51.8,29.92,SE,136,0.0,0.0,47,0.00,,,0.00,Wunderground v.1.15,2013-06-08 23:23:00,
2013-06-08 18:25:00,73.3,53.0,29.92,SE,136,0.0,0.0,49,0.00,,,0.00,Wunderground v.1.15,2013-06-08 23:25:00,
2013-06-08 18:26:00,73.3,52.4,29.92,SE,136,0.0,0.0,48,0.00,,,0.00,Wunderground v.1.15,2013-06-08 23:26:00,
2013-06-08 18:27:00,73.3,52.4,29.92,SE,136,0.0,0.0,48,0.00,,,0.00,Wunderground v.1.15,2013-06-08 23:27:00,
2013-06-08 18:28:00,73.3,52.4,29.92,SE,136,0.0,0.0,48,0.00,,,0.00,Wunderground v.1.15,2013-06-08 23:28:00,
2013-06-08 18:30:00,73.3,51.8,29.93,SE,136,0.0,2.0,47,0.00,,,0.00,Wunderground v.1.15,2013-06-08 23:30:00,
2013-06-08 18:33:00,73.2,51.8,29.93,SE,136,0.0,2.0,47,0.00,,,0.00,Wunderground v.1.15,2013-06-08 23:33:00,
2013-06-08 18:35:00,73.2,52.9,29.93,SE,136,0.0,2.0,49,0.00,,,0.00,Wunderground v.1.15,2013-06-08 23:35:00,
2013-06-08 18:38:00,73.2,52.3,29.93,SE,136,0.0,2.0,48,0.00,,,0.00,Wunderground v.1.15,2013-06-08 23:38:00,
2013-06-08 18:41:00,73.2,53.4,29.93,SE,136,0.0,0.0,50,0.00,,,0.00,Wunderground v.1.15,2013-06-08 23:41:00,
2013-06-08 18:42:00,73.2,52.9,29.93,SE,136,0.0,1.0,49,0.00,,,0.00,Wunderground v.1.15,2013-06-08 23:42:00,
2013-06-08 18:44:00,73.1,52.8,29.93,SE,136,0.0,1.0,49,0.00,,,0.00,Wunderground v.1.15,2013-06-08 23:44:00,
2013-06-08 18:49:00,73.0,52.1,29.93,SE,136,0.0,1.0,48,0.00,,,0.00,Wunderground v.1.15,2013-06-08 23:49:00,
2013-06-08 18:50:00,73.0,52.7,29.93,SE,136,0.0,0.0,49,0.00,,,0.00,Wunderground v.1.15,2013-06-08 23:50:00,
2013-06-08 18:51:00,72.9,52.1,29.93,SE,136,0.0,0.0,48,0.00,,,0.00,Wunderground v.1.15,2013-06-08 23:51:00,
2013-06-08 18:52:00,72.9,52.1,29.93,SE,136,0.0,0.0,48,0.00,,,0.00,Wunderground v.1.15,2013-06-08 23:52:00,
2013-06-08 18:54:00,72.8,52.5,29.93,SE,136,0.0,0.0,49,0.00,,,0.00,Wunderground v.1.15,2013-06-08 23:54:00,
2013-06-08 18:57:00,72.8,53.1,29.93,SE,136,0.0,0.0,50,0.00,,,0.00,Wunderground v.1.15,2013-06-08 23:57:00,
2013-06-08 18:58:00,72.7,53.0,29.93,SE,136,0.0,0.0,50,0.00,,,0.00,Wunderground v.1.15,2013-06-08 23:58:00,
2013-06-08 18:59:00,72.7,53.0,29.93,SE,136,0.0,0.0,50,0.00,,,0.00,Wunderground v.1.15,2013-06-08 23:59:00,
2013-06-08 19:01:00,72.7,53.0,29.93,SE,136,0.0,0.0,50,0.00,,,0.00,Wunderground v.1.15,2013-06-09 00:01:00,
2013-06-08 19:02:00,72.7,53.5,29.93,SE,136,0.0,0.0,51,0.00,,,0.00,Wunderground v.1.15,2013-06-09 00:02:00,
2013-06-08 19:04:00,72.6,53.4,29.93,SE,136,0.0,2.0,51,0.00,,,0.00,Wunderground v.1.15,2013-06-09 00:04:00,
2013-06-08 19:07:00,72.6,52.9,29.93,SE,136,0.0,2.0,50,0.00,,,0.00,Wunderground v.1.15,2013-06-09 00:07:00,
2013-06-08 19:10:00,72.5,55.9,29.93,SE,136,0.0,0.0,56,0.00,,,0.00,Wunderground v.1.15,2013-06-09 00:10:00,
2013-06-08 19:11:00,72.4,55.8,29.93,SE,136,0.0,0.0,56,0.00,,,0.00,Wunderground v.1.15,2013-06-09 00:11:00,
2013-06-08 19:13:00,72.4,53.8,29.93,SE,136,0.0,0.0,52,0.00,,,0.00,Wunderground v.1.15,2013-06-09 00:13:00,
2013-06-08 19:14:00,72.4,53.2,29.93,SE,136,0.0,0.0,51,0.00,,,0.00,Wunderground v.1.15,2013-06-09 00:14:00,
2013-06-08 19:17:00,72.3,53.2,29.93,SE,136,0.0,0.0,51,0.00,,,0.00,Wunderground v.1.15,2013-06-09 00:17:00,
2013-06-08 19:19:00,72.2,53.6,29.93,SE,136,0.0,1.0,52,0.00,,,0.00,Wunderground v.1.15,2013-06-09 00:19:00,
2013-06-08 19:22:00,72.1,53.5,29.93,SE,136,0.0,0.0,52,0.00,,,0.00,Wunderground v.1.15,2013-06-09 00:22:00,
2013-06-08 19:24:00,72.1,54.0,29.93,SE,136,0.0,0.0,53,0.00,,,0.00,Wunderground v.1.15,2013-06-09 00:24:00,
2013-06-08 19:25:00,72.0,53.9,29.93,SE,136,0.0,0.0,53,0.00,,,0.00,Wunderground v.1.15,2013-06-09 00:25:00,
2013-06-08 19:28:00,72.0,53.9,29.93,SE,136,0.0,0.0,53,0.00,,,0.00,Wunderground v.1.15,2013-06-09 00:28:00,
2013-06-08 19:29:00,72.0,54.4,29.92,SE,136,0.0,0.0,54,0.00,,,0.00,Wunderground v.1.15,2013-06-09 00:29:00,
2013-06-08 19:31:00,71.9,53.8,29.92,SE,136,0.0,0.0,53,0.00,,,0.00,Wunderground v.1.15,2013-06-09 00:31:00,
2013-06-08 19:32:00,71.9,53.8,29.92,SE,136,0.0,0.0,53,0.00,,,0.00,Wunderground v.1.15,2013-06-09 00:32:00,
2013-06-08 19:34:00,71.8,54.3,29.93,SE,136,0.0,0.0,54,0.00,,,0.00,Wunderground v.1.15,2013-06-09 00:34:00,
2013-06-08 19:37:00,71.7,54.7,29.93,SE,136,0.0,0.0,55,0.00,,,0.00,Wunderground v.1.15,2013-06-09 00:37:00,
2013-06-08 19:38:00,71.7,54.2,29.93,SE,136,0.0,0.0,54,0.00,,,0.00,Wunderground v.1.15,2013-06-09 00:38:00,
2013-06-08 19:40:00,71.6,54.1,29.93,SE,136,0.0,0.0,54,0.00,,,0.00,Wunderground v.1.15,2013-06-09 00:40:00,
2013-06-08 19:41:00,71.6,54.6,29.93,SE,136,0.0,0.0,55,0.00,,,0.00,Wunderground v.1.15,2013-06-09 00:41:00,
2013-06-08 19:44:00,71.5,54.5,29.93,SE,136,0.0,0.0,55,0.00,,,0.00,Wunderground v.1.15,2013-06-09 00:44:00,
2013-06-08 19:45:00,71.4,53.9,29.93,SE,136,0.0,0.0,54,0.00,,,0.00,Wunderground v.1.15,2013-06-09 00:45:00,
2013-06-08 19:46:00,71.4,53.9,29.93,SE,136,0.0,0.0,54,0.00,,,0.00,Wunderground v.1.15,2013-06-09 00:46:00,
2013-06-08 19:48:00,71.3,53.8,29.93,SE,136,0.0,0.0,54,0.00,,,0.00,Wunderground v.1.15,2013-06-09 00:48:00,
2013-06-08 19:50:00,71.2,54.2,29.92,SE,136,0.0,0.0,55,0.00,,,0.00,Wunderground v.1.15,2013-06-09 00:50:00,
2013-06-08 19:54:00,70.9,53.9,29.92,SE,136,0.0,0.0,55,0.00,,,0.00,Wunderground v.1.15,2013-06-09 00:54:00,
2013-06-08 19:55:00,70.8,53.8,29.92,SE,136,0.0,0.0,55,0.00,,,0.00,Wunderground v.1.15,2013-06-09 00:55:00,
2013-06-08 19:57:00,70.7,53.7,29.93,SE,136,0.0,0.0,55,0.00,,,0.00,Wunderground v.1.15,2013-06-09 00:57:00,
2013-06-08 20:00:00,70.5,53.6,29.92,SE,136,0.0,0.0,55,0.00,,,0.00,Wunderground v.1.15,2013-06-09 01:00:00,
2013-06-08 20:02:00,70.3,53.4,29.93,SE,136,0.0,0.0,55,0.00,,,0.00,Wunderground v.1.15,2013-06-09 01:02:00,
2013-06-08 20:04:00,70.2,53.8,29.93,SE,136,0.0,0.0,56,0.00,,,0.00,Wunderground v.1.15,2013-06-09 01:04:00,
2013-06-08 20:05:00,70.1,53.7,29.92,SE,136,0.0,0.0,56,0.00,,,0.00,Wunderground v.1.15,2013-06-09 01:05:00,
2013-06-08 20:06:00,69.9,53.5,29.92,SE,136,0.0,0.0,56,0.00,,,0.00,Wunderground v.1.15,2013-06-09 01:06:00,
2013-06-08 20:10:00,69.6,53.7,29.92,SE,136,0.0,0.0,57,0.00,,,0.00,Wunderground v.1.15,2013-06-09 01:10:00,
2013-06-08 20:11:00,69.5,54.1,29.92,SE,136,0.0,0.0,58,0.00,,,0.00,Wunderground v.1.15,2013-06-09 01:11:00,
2013-06-08 20:12:00,69.5,54.1,29.92,SE,136,0.0,0.0,58,0.00,,,0.00,Wunderground v.1.15,2013-06-09 01:12:00,
2013-06-08 20:14:00,69.3,53.9,29.92,SE,136,0.0,0.0,58,0.00,,,0.00,Wunderground v.1.15,2013-06-09 01:14:00,
2013-06-08 20:17:00,69.1,53.2,29.92,SE,136,0.0,0.0,57,0.00,,,0.00,Wunderground v.1.15,2013-06-09 01:17:00,
2013-06-08 20:19:00,68.9,53.5,29.92,SE,136,0.0,0.0,58,0.00,,,0.00,Wunderground v.1.15,2013-06-09 01:19:00,
2013-06-08 20:20:00,68.9,54.0,29.92,SE,136,0.0,0.0,59,0.00,,,0.00,Wunderground v.1.15,2013-06-09 01:20:00,
2013-06-08 20:21:00,68.8,53.9,29.92,SE,136,0.0,0.0,59,0.00,,,0.00,Wunderground v.1.15,2013-06-09 01:21:00,
2013-06-08 20:22:00,68.8,53.9,29.92,SE,136,0.0,0.0,59,0.00,,,0.00,Wunderground v.1.15,2013-06-09 01:22:00,
2013-06-08 20:24:00,68.7,53.8,29.92,SE,136,0.0,0.0,59,0.00,,,0.00,Wunderground v.1.15,2013-06-09 01:24:00,
2013-06-08 20:27:00,68.5,54.1,29.92,SE,136,0.0,0.0,60,0.00,,,0.00,Wunderground v.1.15,2013-06-09 01:27:00,
2013-06-08 20:28:00,68.4,54.4,29.92,SE,136,0.0,0.0,61,0.00,,,0.00,Wunderground v.1.15,2013-06-09 01:28:00,
2013-06-08 20:29:00,68.4,54.4,29.92,SE,136,0.0,0.0,61,0.00,,,0.00,Wunderground v.1.15,2013-06-09 01:29:00,
2013-06-08 20:34:00,68.1,55.0,29.92,SE,136,0.0,0.0,63,0.00,,,0.00,Wunderground v.1.15,2013-06-09 01:34:00,
2013-06-08 20:35:00,68.0,55.4,29.92,SE,136,0.0,0.0,64,0.00,,,0.00,Wunderground v.1.15,2013-06-09 01:35:00,
2013-06-08 20:36:00,67.9,55.3,29.92,SE,136,0.0,0.0,64,0.00,,,0.00,Wunderground v.1.15,2013-06-09 01:36:00,
2013-06-08 20:39:00,67.7,54.6,29.92,SE,136,0.0,0.0,63,0.00,,,0.00,Wunderground v.1.15,2013-06-09 01:39:00,
2013-06-08 20:40:00,67.6,54.6,29.92,SE,136,0.0,0.0,63,0.00,,,0.00,Wunderground v.1.15,2013-06-09 01:40:00,
2013-06-08 20:43:00,67.5,55.3,29.92,SE,136,0.0,0.0,65,0.00,,,0.00,Wunderground v.1.15,2013-06-09 01:43:00,
2013-06-08 20:44:00,67.4,55.2,29.91,SE,136,0.0,0.0,65,0.00,,,0.00,Wunderground v.1.15,2013-06-09 01:44:00,
2013-06-08 20:48:00,67.2,55.5,29.91,SE,136,0.0,0.0,66,0.00,,,0.00,Wunderground v.1.15,2013-06-09 01:48:00,
2013-06-08 20:49:00,67.1,55.8,29.92,SE,136,0.0,0.0,67,0.00,,,0.00,Wunderground v.1.15,2013-06-09 01:49:00,
2013-06-08 20:50:00,67.0,55.3,29.92,SE,136,0.0,0.0,66,0.00,,,0.00,Wunderground v.1.15,2013-06-09 01:50:00,
2013-06-08 20:51:00,66.9,55.2,29.91,SE,136,0.0,0.0,66,0.00,,,0.00,Wunderground v.1.15,2013-06-09 01:51:00,
2013-06-08 20:54:00,66.8,55.1,29.92,SE,136,0.0,0.0,66,0.00,,,0.00,Wunderground v.1.15,2013-06-09 01:54:00,
2013-06-08 20:55:00,66.8,55.1,29.92,SE,136,0.0,0.0,66,0.00,,,0.00,Wunderground v.1.15,2013-06-09 01:55:00,
2013-06-08 20:56:00,66.7,54.6,29.92,SE,136,0.0,0.0,65,0.00,,,0.00,Wunderground v.1.15,2013-06-09 01:56:00,
2013-06-08 20:57:00,66.7,54.6,29.92,SE,136,0.0,0.0,65,0.00,,,0.00,Wunderground v.1.15,2013-06-09 01:57:00,
2013-06-08 20:59:00,66.6,54.9,29.92,SE,136,0.0,0.0,66,0.00,,,0.00,Wunderground v.1.15,2013-06-09 01:59:00,
2013-06-08 21:03:00,66.4,54.7,29.91,SE,136,0.0,0.0,66,0.00,,,0.00,Wunderground v.1.15,2013-06-09 02:03:00,
2013-06-08 21:04:00,66.3,54.6,29.91,SE,136,0.0,0.0,66,0.00,,,0.00,Wunderground v.1.15,2013-06-09 02:04:00,
2013-06-08 21:05:00,66.3,54.6,29.91,SE,136,0.0,0.0,66,0.00,,,0.00,Wunderground v.1.15,2013-06-09 02:05:00,
2013-06-08 21:07:00,66.3,54.6,29.91,SE,136,0.0,0.0,66,0.00,,,0.00,Wunderground v.1.15,2013-06-09 02:07:00,
2013-06-08 21:08:00,66.2,54.5,29.91,SE,136,0.0,0.0,66,0.00,,,0.00,Wunderground v.1.15,2013-06-09 02:08:00,
2013-06-08 21:09:00,66.2,54.5,29.91,SE,136,0.0,0.0,66,0.00,,,0.00,Wunderground v.1.15,2013-06-09 02:09:00,
2013-06-08 21:10:00,66.2,54.5,29.91,SE,136,0.0,0.0,66,0.00,,,0.00,Wunderground v.1.15,2013-06-09 02:10:00,
2013-06-08 21:14:00,66.1,54.0,29.91,SE,136,0.0,0.0,65,0.00,,,0.00,Wunderground v.1.15,2013-06-09 02:14:00,
2013-06-08 21:18:00,66.0,53.9,29.92,SE,136,0.0,0.0,65,0.00,,,0.00,Wunderground v.1.15,2013-06-09 02:18:00,
2013-06-08 21:19:00,66.0,54.3,29.92,SE,136,0.0,0.0,66,0.00,,,0.00,Wunderground v.1.15,2013-06-09 02:19:00,
2013-06-08 21:21:00,66.0,54.3,29.92,SE,136,0.0,0.0,66,0.00,,,0.00,Wunderground v.1.15,2013-06-09 02:21:00,
2013-06-08 21:24:00,66.0,54.3,29.92,SE,136,0.0,0.0,66,0.00,,,0.00,Wunderground v.1.15,2013-06-09 02:24:00,
2013-06-08 21:27:00,66.0,54.3,29.92,SE,136,0.0,0.0,66,0.00,,,0.00,Wunderground v.1.15,2013-06-09 02:27:00,
2013-06-08 21:29:00,66.0,53.9,29.92,SE,136,0.0,0.0,65,0.00,,,0.00,Wunderground v.1.15,2013-06-09 02:29:00,
2013-06-08 21:31:00,66.0,54.3,29.92,SE,136,0.0,0.0,66,0.00,,,0.00,Wunderground v.1.15,2013-06-09 02:31:00,
2013-06-08 21:32:00,66.0,54.3,29.92,SE,136,0.0,0.0,66,0.00,,,0.00,Wunderground v.1.15,2013-06-09 02:32:00,
2013-06-08 21:34:00,66.0,54.3,29.92,SE,136,0.0,0.0,66,0.00,,,0.00,Wunderground v.1.15,2013-06-09 02:34:00,
2013-06-08 21:36:00,66.0,53.9,29.93,SE,136,0.0,0.0,65,0.00,,,0.00,Wunderground v.1.15,2013-06-09 02:36:00,
2013-06-08 21:39:00,66.1,54.4,29.93,SE,136,0.0,2.0,66,0.00,,,0.00,Wunderground v.1.15,2013-06-09 02:39:00,
2013-06-08 21:40:00,66.1,54.4,29.93,SE,135,0.0,0.0,66,0.00,,,0.00,Wunderground v.1.15,2013-06-09 02:40:00,
2013-06-08 21:42:00,66.1,53.6,29.93,ESE,123,1.0,4.0,64,0.00,,,0.00,Wunderground v.1.15,2013-06-09 02:42:00,
2013-06-08 21:43:00,66.1,53.6,29.93,ESE,123,1.0,4.0,64,0.00,,,0.00,Wunderground v.1.15,2013-06-09 02:43:00,
2013-06-08 21:45:00,66.2,53.2,29.93,ESE,114,1.0,4.0,63,0.00,,,0.00,Wunderground v.1.15,2013-06-09 02:45:00,
2013-06-08 21:47:00,66.3,52.4,29.93,East,100,3.0,6.0,61,0.00,,,0.00,Wunderground v.1.15,2013-06-09 02:47:00,
2013-06-08 21:49:00,66.4,52.5,29.93,East,101,3.0,6.0,61,0.00,,,0.00,Wunderground v.1.15,2013-06-09 02:49:00,
2013-06-08 21:50:00,66.5,52.6,29.93,East,99,3.0,4.0,61,0.00,,,0.00,Wunderground v.1.15,2013-06-09 02:50:00,
2013-06-08 21:51:00,66.5,51.7,29.93,East,98,3.0,6.0,59,0.00,,,0.00,Wunderground v.1.15,2013-06-09 02:51:00,
2013-06-08 21:55:00,66.7,51.5,29.93,ESE,121,4.0,7.0,58,0.00,,,0.00,Wunderground v.1.15,2013-06-09 02:55:00,
2013-06-08 21:58:00,66.9,50.7,29.93,East,92,4.0,7.0,56,0.00,,,0.00,Wunderground v.1.15,2013-06-09 02:58:00,
2013-06-08 22:00:00,67.0,50.8,29.93,ESE,109,4.0,4.0,56,0.00,,,0.00,Wunderground v.1.15,2013-06-09 03:00:00,
2013-06-08 22:02:00,67.0,50.8,29.94,SE,129,4.0,6.0,56,0.00,,,0.00,Wunderground v.1.15,2013-06-09 03:02:00,
2013-06-08 22:04:00,67.0,50.3,29.94,ESE,114,3.0,6.0,55,0.00,,,0.00,Wunderground v.1.15,2013-06-09 03:04:00,
2013-06-08 22:06:00,67.0,50.3,29.94,East,88,4.0,6.0,55,0.00,,,0.00,Wunderground v.1.15,2013-06-09 03:06:00,
2013-06-08 22:08:00,67.0,50.3,29.94,East,79,4.0,6.0,55,0.00,,,0.00,Wunderground v.1.15,2013-06-09 03:08:00,
2013-06-08 22:10:00,67.0,50.3,29.94,ESE,112,4.0,4.0,55,0.00,,,0.00,Wunderground v.1.15,2013-06-09 03:10:00,
2013-06-08 22:12:00,67.0,50.3,29.94,East,86,4.0,5.0,55,0.00,,,0.00,Wunderground v.1.15,2013-06-09 03:12:00,
2013-06-08 22:16:00,66.9,50.7,29.94,East,90,4.0,5.0,56,0.00,,,0.00,Wunderground v.1.15,2013-06-09 03:16:00,
2013-06-08 22:18:00,66.8,50.6,29.94,East,94,4.0,5.0,56,0.00,,,0.00,Wunderground v.1.15,2013-06-09 03:18:00,
2013-06-08 22:19:00,66.8,50.6,29.95,East,95,4.0,5.0,56,0.00,,,0.00,Wunderground v.1.15,2013-06-09 03:19:00,
2013-06-08 22:20:00,66.8,50.1,29.95,East,98,3.0,3.0,55,0.00,,,0.00,Wunderground v.1.15,2013-06-09 03:20:00,
2013-06-08 22:24:00,66.6,50.4,29.95,East,100,2.0,4.0,56,0.00,,,0.00,Wunderground v.1.15,2013-06-09 03:24:00,
2013-06-08 22:25:00,66.6,50.4,29.95,East,100,2.0,4.0,56,0.00,,,0.00,Wunderground v.1.15,2013-06-09 03:25:00,
2013-06-08 22:26:00,66.5,50.3,29.95,ESE,105,2.0,4.0,56,0.00,,,0.00,Wunderground v.1.15,2013-06-09 03:26:00,
2013-06-08 22:28:00,66.5,50.3,29.95,ESE,113,2.0,4.0,56,0.00,,,0.00,Wunderground v.1.15,2013-06-09 03:28:00,
2013-06-08 22:30:00,66.4,50.2,29.95,ESE,104,2.0,3.0,56,0.00,,,0.00,Wunderground v.1.15,2013-06-09 03:30:00,
2013-06-08 22:33:00,66.2,50.0,29.94,SE,126,2.0,4.0,56,0.00,,,0.00,Wunderground v.1.15,2013-06-09 03:33:00,
2013-06-08 22:34:00,66.2,50.0,29.95,East,98,2.0,6.0,56,0.00,,,0.00,Wunderground v.1.15,2013-06-09 03:34:00,
2013-06-08 22:36:00,66.2,50.0,29.94,ESE,105,3.0,6.0,56,0.00,,,0.00,Wunderground v.1.15,2013-06-09 03:36:00,
2013-06-08 22:37:00,66.1,49.9,29.94,SSE,159,3.0,7.0,56,0.00,,,0.00,Wunderground v.1.15,2013-06-09 03:37:00,
2013-06-08 22:39:00,66.1,49.9,29.94,East,97,3.0,7.0,56,0.00,,,0.00,Wunderground v.1.15,2013-06-09 03:39:00,
2013-06-08 22:40:00,66.1,49.9,29.94,ESE,103,3.0,4.0,56,0.00,,,0.00,Wunderground v.1.15,2013-06-09 03:40:00,
2013-06-08 22:43:00,66.0,49.8,29.95,ENE,69,3.0,4.0,56,0.00,,,0.00,Wunderground v.1.15,2013-06-09 03:43:00,
2013-06-08 22:45:00,65.9,49.8,29.95,ESE,115,3.0,4.0,56,0.00,,,0.00,Wunderground v.1.15,2013-06-09 03:45:00,
2013-06-08 22:48:00,65.9,49.8,29.95,East,86,3.0,4.0,56,0.00,,,0.00,Wunderground v.1.15,2013-06-09 03:48:00,
2013-06-08 22:49:00,65.9,49.8,29.95,SE,134,3.0,6.0,56,0.00,,,0.00,Wunderground v.1.15,2013-06-09 03:49:00,
2013-06-08 22:50:00,65.9,49.8,29.95,ESE,111,3.0,4.0,56,0.00,,,0.00,Wunderground v.1.15,2013-06-09 03:50:00,
2013-06-08 22:51:00,65.8,49.7,29.95,ESE,123,3.0,4.0,56,0.00,,,0.00,Wunderground v.1.15,2013-06-09 03:51:00,
2013-06-08 22:54:00,65.8,50.1,29.95,ESE,111,3.0,4.0,57,0.00,,,0.00,Wunderground v.1.15,2013-06-09 03:54:00,
2013-06-08 22:58:00,65.6,50.0,29.95,ESE,111,3.0,4.0,57,0.00,,,0.00,Wunderground v.1.15,2013-06-09 03:58:00,
2013-06-08 22:59:00,65.7,49.6,29.94,ESE,113,3.0,5.0,56,0.00,,,0.00,Wunderground v.1.15,2013-06-09 03:59:00,
2013-06-08 23:00:00,65.6,49.5,29.95,ESE,113,3.0,3.0,56,0.00,,,0.00,Wunderground v.1.15,2013-06-09 04:00:00,
2013-06-08 23:01:00,65.6,50.0,29.95,ESE,112,2.0,3.0,57,0.00,,,0.00,Wunderground v.1.15,2013-06-09 04:01:00,
2013-06-08 23:02:00,65.6,50.4,29.95,ESE,109,2.0,3.0,58,0.00,,,0.00,Wunderground v.1.15,2013-06-09 04:02:00,
2013-06-08 23:03:00,65.5,49.9,29.95,ESE,119,2.0,8.0,57,0.00,,,0.00,Wunderground v.1.15,2013-06-09 04:03:00,
2013-06-08 23:05:00,65.5,49.9,29.94,ESE,104,2.0,8.0,57,0.00,,,0.00,Wunderground v.1.15,2013-06-09 04:05:00,
2013-06-08 23:06:00,65.5,49.4,29.95,ESE,115,2.0,8.0,56,0.00,,,0.00,Wunderground v.1.15,2013-06-09 04:06:00,
2013-06-08 23:07:00,65.4,49.3,29.94,ESE,111,2.0,8.0,56,0.00,,,0.00,Wunderground v.1.15,2013-06-09 04:07:00,
2013-06-08 23:08:00,65.4,49.3,29.94,ESE,111,2.0,8.0,56,0.00,,,0.00,Wunderground v.1.15,2013-06-09 04:08:00,
2013-06-08 23:10:00,65.4,49.8,29.95,East,97,2.0,2.0,57,0.00,,,0.00,Wunderground v.1.15,2013-06-09 04:10:00,
2013-06-08 23:11:00,65.3,49.2,29.94,East,84,3.0,3.0,56,0.00,,,0.00,Wunderground v.1.15,2013-06-09 04:11:00,
2013-06-08 23:13:00,65.3,49.2,29.95,ENE,78,3.0,7.0,56,0.00,,,0.00,Wunderground v.1.15,2013-06-09 04:13:00,
2013-06-08 23:15:00,65.3,49.2,29.94,SE,131,3.0,7.0,56,0.00,,,0.00,Wunderground v.1.15,2013-06-09 04:15:00,
2013-06-08 23:16:00,65.2,48.6,29.94,ESE,111,3.0,7.0,55,0.00,,,0.00,Wunderground v.1.15,2013-06-09 04:16:00,
2013-06-08 23:17:00,65.2,48.6,29.94,ESE,107,3.0,7.0,55,0.00,,,0.00,Wunderground v.1.15,2013-06-09 04:17:00,
2013-06-08 23:22:00,65.2,48.6,29.94,ESE,119,3.0,4.0,55,0.00,,,0.00,Wunderground v.1.15,2013-06-09 04:22:00,
2013-06-08 23:23:00,65.2,48.6,29.94,ESE,117,3.0,4.0,55,0.00,,,0.00,Wunderground v.1.15,2013-06-09 04:23:00,
2013-06-08 23:24:00,65.2,48.6,29.94,ESE,111,3.0,4.0,55,0.00,,,0.00,Wunderground v.1.15,2013-06-09 04:24:00,
2013-06-08 23:27:00,65.1,48.5,29.94,ESE,103,3.0,4.0,55,0.00,,,0.00,Wunderground v.1.15,2013-06-09 04:27:00,
2013-06-08 23:28:00,65.1,48.5,29.94,East,101,3.0,4.0,55,0.00,,,0.00,Wunderground v.1.15,2013-06-09 04:28:00,
2013-06-08 23:29:00,65.1,48.5,29.94,ESE,103,3.0,4.0,55,0.00,,,0.00,Wunderground v.1.15,2013-06-09 04:29:00,
2013-06-08 23:32:00,65.0,48.4,29.94,ESE,122,3.0,4.0,55,0.00,,,0.00,Wunderground v.1.15,2013-06-09 04:32:00,
2013-06-08 23:34:00,65.0,47.9,29.94,ESE,105,3.0,4.0,54,0.00,,,0.00,Wunderground v.1.15,2013-06-09 04:34:00,
2013-06-08 23:36:00,65.0,47.9,29.94,East,100,3.0,5.0,54,0.00,,,0.00,Wunderground v.1.15,2013-06-09 04:36:00,
2013-06-08 23:37:00,65.0,47.9,29.94,East,95,4.0,5.0,54,0.00,,,0.00,Wunderground v.1.15,2013-06-09 04:37:00,
2013-06-08 23:40:00,64.9,47.9,29.94,East,100,3.0,3.0,54,0.00,,,0.00,Wunderground v.1.15,2013-06-09 04:40:00,
2013-06-08 23:41:00,64.9,47.9,29.94,SE,133,3.0,3.0,54,0.00,,,0.00,Wunderground v.1.15,2013-06-09 04:41:00,
2013-06-08 23:42:00,64.9,47.9,29.94,SE,133,4.0,4.0,54,0.00,,,0.00,Wunderground v.1.15,2013-06-09 04:42:00,
2013-06-08 23:43:00,64.9,47.9,29.94,ESE,123,3.0,5.0,54,0.00,,,0.00,Wunderground v.1.15,2013-06-09 04:43:00,
2013-06-08 23:44:00,64.9,47.9,29.94,SE,134,3.0,5.0,54,0.00,,,0.00,Wunderground v.1.15,2013-06-09 04:44:00,
2013-06-08 23:45:00,64.9,47.9,29.94,SE,135,4.0,5.0,54,0.00,,,0.00,Wunderground v.1.15,2013-06-09 04:45:00,
2013-06-08 23:48:00,64.9,47.4,29.94,ESE,117,3.0,5.0,53,0.00,,,0.00,Wunderground v.1.15,2013-06-09 04:48:00,
2013-06-08 23:50:00,64.8,47.3,29.94,ESE,107,3.0,3.0,53,0.00,,,0.00,Wunderground v.1.15,2013-06-09 04:50:00,
2013-06-08 23:51:00,64.8,47.3,29.94,SE,143,3.0,4.0,53,0.00,,,0.00,Wunderground v.1.15,2013-06-09 04:51:00,
2013-06-08 23:53:00,64.8,47.8,29.94,East,101,3.0,5.0,54,0.00,,,0.00,Wunderground v.1.15,2013-06-09 04:53:00,
2013-06-08 23:55:00,64.8,47.3,29.95,ESE,103,3.0,5.0,53,0.00,,,0.00,Wunderground v.1.15,2013-06-09 04:55:00,
2013-06-08 23:58:00,64.7,47.2,29.95,East,87,3.0,6.0,53,0.00,,,0.00,Wunderground v.1.15,2013-06-09 04:58:00,